<?xml version="1.0" encoding="UTF-8" standalone="no" ?>
<gpx xmlns="http://www.topografix.com/GPX/1/1" xmlns:xsi="http://www.w3.org/2001/XMLSchema-instance" xsi:schemaLocation="http://www.topografix.com/GPX/1/1 http://www.topografix.com/GPX/1/1/gpx.xsd" version="1.1" creator="VisuGPX - https://www.visugpx.com">
  <metadata>
    <name>MAS TAILLET-LAC FERRAND 21</name>
    <desc><![CDATA[2_ lanarce_mas du maillet_lac_ferrand]]></desc>
  </metadata>
  <trk>
    <name><![CDATA[MAS TAILLET-LAC FERRAND 21]]></name>
    <trkseg>
      <trkpt lat="44.46245" lon="3.69122">
        <ele>1228.7</ele>
        <time>2001-10-26T07:24:37Z</time>
      </trkpt>
      <trkpt lat="44.46245" lon="3.69122">
        <ele>1232.55</ele>
        <time>2001-10-26T07:24:38Z</time>
      </trkpt>
      <trkpt lat="44.46245" lon="3.69122">
        <ele>1230.62</ele>
        <time>2001-10-26T07:24:39Z</time>
      </trkpt>
      <trkpt lat="44.46245" lon="3.69122">
        <ele>1234.47</ele>
        <time>2001-10-26T07:24:42Z</time>
      </trkpt>
      <trkpt lat="44.46245" lon="3.69122">
        <ele>1230.14</ele>
        <time>2001-10-26T07:24:44Z</time>
      </trkpt>
      <trkpt lat="44.46245" lon="3.69122">
        <ele>1232.55</ele>
        <time>2001-10-26T07:24:46Z</time>
      </trkpt>
      <trkpt lat="44.46245" lon="3.69122">
        <ele>1234.47</ele>
        <time>2001-10-26T07:24:47Z</time>
      </trkpt>
      <trkpt lat="44.46245" lon="3.69122">
        <ele>1232.07</ele>
        <time>2001-10-26T07:24:49Z</time>
      </trkpt>
      <trkpt lat="44.46245" lon="3.69122">
        <ele>1233.99</ele>
        <time>2001-10-26T07:24:50Z</time>
      </trkpt>
      <trkpt lat="44.46245" lon="3.69122">
        <ele>1232.07</ele>
        <time>2001-10-26T07:24:51Z</time>
      </trkpt>
      <trkpt lat="44.7207" lon="4.02795">
        <ele>1233.03</ele>
        <time>2002-03-27T08:43:32Z</time>
      </trkpt>
      <trkpt lat="44.72069" lon="4.02798">
        <ele>1229.66</ele>
        <time>2002-03-27T08:43:35Z</time>
      </trkpt>
      <trkpt lat="44.72069" lon="4.02799">
        <ele>1230.62</ele>
        <time>2002-03-27T08:43:36Z</time>
      </trkpt>
      <trkpt lat="44.72068" lon="4.028">
        <ele>1234.47</ele>
        <time>2002-03-27T08:43:42Z</time>
      </trkpt>
      <trkpt lat="44.72068" lon="4.028">
        <ele>1231.11</ele>
        <time>2002-03-27T08:43:43Z</time>
      </trkpt>
      <trkpt lat="44.72068" lon="4.028">
        <ele>1234.47</ele>
        <time>2002-03-27T08:44:00Z</time>
      </trkpt>
      <trkpt lat="44.72068" lon="4.028">
        <ele>1230.62</ele>
        <time>2002-03-27T08:44:02Z</time>
      </trkpt>
      <trkpt lat="44.72069" lon="4.028">
        <ele>1233.51</ele>
        <time>2002-03-27T08:44:05Z</time>
      </trkpt>
      <trkpt lat="44.72069" lon="4.028">
        <ele>1229.18</ele>
        <time>2002-03-27T08:44:32Z</time>
      </trkpt>
      <trkpt lat="44.72069" lon="4.028">
        <ele>1234.47</ele>
        <time>2002-03-27T08:44:33Z</time>
      </trkpt>
      <trkpt lat="44.72069" lon="4.02797">
        <ele>1230.14</ele>
        <time>2002-03-27T08:45:12Z</time>
      </trkpt>
      <trkpt lat="44.72069" lon="4.02797">
        <ele>1230.14</ele>
        <time>2002-03-27T08:45:13Z</time>
      </trkpt>
      <trkpt lat="44.72069" lon="4.02797">
        <ele>1236.39</ele>
        <time>2002-03-27T08:45:14Z</time>
      </trkpt>
      <trkpt lat="44.72068" lon="4.02797">
        <ele>1234.95</ele>
        <time>2002-03-27T08:45:15Z</time>
      </trkpt>
      <trkpt lat="44.72067" lon="4.02797">
        <ele>1236.39</ele>
        <time>2002-03-27T08:45:48Z</time>
      </trkpt>
      <trkpt lat="44.72076" lon="4.02792">
        <ele>1238.32</ele>
        <time>2002-03-27T08:46:34Z</time>
      </trkpt>
      <trkpt lat="44.72085" lon="4.02792">
        <ele>1238.8</ele>
        <time>2002-03-27T08:46:42Z</time>
      </trkpt>
      <trkpt lat="44.72086" lon="4.02798">
        <ele>1238.8</ele>
        <time>2002-03-27T08:46:47Z</time>
      </trkpt>
      <trkpt lat="44.72074" lon="4.02825">
        <ele>1238.8</ele>
        <time>2002-03-27T08:47:05Z</time>
      </trkpt>
      <trkpt lat="44.72073" lon="4.02833">
        <ele>1238.32</ele>
        <time>2002-03-27T08:47:10Z</time>
      </trkpt>
      <trkpt lat="44.72068" lon="4.02854">
        <ele>1238.8</ele>
        <time>2002-03-27T08:47:22Z</time>
      </trkpt>
      <trkpt lat="44.72064" lon="4.02877">
        <ele>1238.32</ele>
        <time>2002-03-27T08:47:35Z</time>
      </trkpt>
      <trkpt lat="44.72064" lon="4.02879">
        <ele>1238.32</ele>
        <time>2002-03-27T08:47:36Z</time>
      </trkpt>
      <trkpt lat="44.72056" lon="4.02904">
        <ele>1238.32</ele>
        <time>2002-03-27T08:47:51Z</time>
      </trkpt>
      <trkpt lat="44.72055" lon="4.02909">
        <ele>1239.76</ele>
        <time>2002-03-27T08:47:54Z</time>
      </trkpt>
      <trkpt lat="44.7205" lon="4.02923">
        <ele>1238.8</ele>
        <time>2002-03-27T08:48:04Z</time>
      </trkpt>
      <trkpt lat="44.72044" lon="4.02937">
        <ele>1239.28</ele>
        <time>2002-03-27T08:48:14Z</time>
      </trkpt>
      <trkpt lat="44.72043" lon="4.02939">
        <ele>1238.8</ele>
        <time>2002-03-27T08:48:15Z</time>
      </trkpt>
      <trkpt lat="44.72044" lon="4.02947">
        <ele>1239.28</ele>
        <time>2002-03-27T08:48:26Z</time>
      </trkpt>
      <trkpt lat="44.72044" lon="4.02947">
        <ele>1240.24</ele>
        <time>2002-03-27T08:48:37Z</time>
      </trkpt>
      <trkpt lat="44.72042" lon="4.02948">
        <ele>1239.76</ele>
        <time>2002-03-27T08:48:51Z</time>
      </trkpt>
      <trkpt lat="44.7203" lon="4.02965">
        <ele>1240.72</ele>
        <time>2002-03-27T08:49:02Z</time>
      </trkpt>
      <trkpt lat="44.72019" lon="4.02987">
        <ele>1239.76</ele>
        <time>2002-03-27T08:49:15Z</time>
      </trkpt>
      <trkpt lat="44.72008" lon="4.03007">
        <ele>1240.72</ele>
        <time>2002-03-27T08:49:26Z</time>
      </trkpt>
      <trkpt lat="44.71999" lon="4.03023">
        <ele>1240.72</ele>
        <time>2002-03-27T08:49:37Z</time>
      </trkpt>
      <trkpt lat="44.7199" lon="4.03037">
        <ele>1240.24</ele>
        <time>2002-03-27T08:49:45Z</time>
      </trkpt>
      <trkpt lat="44.71975" lon="4.03059">
        <ele>1240.24</ele>
        <time>2002-03-27T08:49:59Z</time>
      </trkpt>
      <trkpt lat="44.71967" lon="4.03071">
        <ele>1240.24</ele>
        <time>2002-03-27T08:50:07Z</time>
      </trkpt>
      <trkpt lat="44.71948" lon="4.03093">
        <ele>1240.24</ele>
        <time>2002-03-27T08:50:21Z</time>
      </trkpt>
      <trkpt lat="44.71945" lon="4.03095">
        <ele>1240.72</ele>
        <time>2002-03-27T08:50:24Z</time>
      </trkpt>
      <trkpt lat="44.71937" lon="4.03102">
        <ele>1239.76</ele>
        <time>2002-03-27T08:50:30Z</time>
      </trkpt>
      <trkpt lat="44.71919" lon="4.03121">
        <ele>1240.24</ele>
        <time>2002-03-27T08:50:44Z</time>
      </trkpt>
      <trkpt lat="44.71906" lon="4.03137">
        <ele>1240.24</ele>
        <time>2002-03-27T08:50:55Z</time>
      </trkpt>
      <trkpt lat="44.7189" lon="4.03149">
        <ele>1239.76</ele>
        <time>2002-03-27T08:51:07Z</time>
      </trkpt>
      <trkpt lat="44.71872" lon="4.03164">
        <ele>1239.76</ele>
        <time>2002-03-27T08:51:20Z</time>
      </trkpt>
      <trkpt lat="44.71864" lon="4.03172">
        <ele>1240.24</ele>
        <time>2002-03-27T08:51:28Z</time>
      </trkpt>
      <trkpt lat="44.71852" lon="4.03184">
        <ele>1239.76</ele>
        <time>2002-03-27T08:51:37Z</time>
      </trkpt>
      <trkpt lat="44.71833" lon="4.03199">
        <ele>1239.76</ele>
        <time>2002-03-27T08:51:51Z</time>
      </trkpt>
      <trkpt lat="44.7182" lon="4.03213">
        <ele>1239.28</ele>
        <time>2002-03-27T08:52:06Z</time>
      </trkpt>
      <trkpt lat="44.71809" lon="4.03224">
        <ele>1238.32</ele>
        <time>2002-03-27T08:52:16Z</time>
      </trkpt>
      <trkpt lat="44.71787" lon="4.03242">
        <ele>1239.28</ele>
        <time>2002-03-27T08:52:30Z</time>
      </trkpt>
      <trkpt lat="44.71779" lon="4.03248">
        <ele>1238.32</ele>
        <time>2002-03-27T08:52:36Z</time>
      </trkpt>
      <trkpt lat="44.7177" lon="4.03257">
        <ele>1239.76</ele>
        <time>2002-03-27T08:52:42Z</time>
      </trkpt>
      <trkpt lat="44.71765" lon="4.03261">
        <ele>1238.8</ele>
        <time>2002-03-27T08:52:45Z</time>
      </trkpt>
      <trkpt lat="44.71757" lon="4.03267">
        <ele>1238.8</ele>
        <time>2002-03-27T08:52:50Z</time>
      </trkpt>
      <trkpt lat="44.71753" lon="4.03274">
        <ele>1237.83</ele>
        <time>2002-03-27T08:52:54Z</time>
      </trkpt>
      <trkpt lat="44.71742" lon="4.03304">
        <ele>1237.83</ele>
        <time>2002-03-27T08:53:08Z</time>
      </trkpt>
      <trkpt lat="44.71742" lon="4.03328">
        <ele>1238.32</ele>
        <time>2002-03-27T08:53:19Z</time>
      </trkpt>
      <trkpt lat="44.71748" lon="4.03349">
        <ele>1238.32</ele>
        <time>2002-03-27T08:53:30Z</time>
      </trkpt>
      <trkpt lat="44.7175" lon="4.03355">
        <ele>1237.83</ele>
        <time>2002-03-27T08:53:33Z</time>
      </trkpt>
      <trkpt lat="44.71744" lon="4.03368">
        <ele>1237.35</ele>
        <time>2002-03-27T08:53:41Z</time>
      </trkpt>
      <trkpt lat="44.71732" lon="4.03379">
        <ele>1238.8</ele>
        <time>2002-03-27T08:53:51Z</time>
      </trkpt>
      <trkpt lat="44.7173" lon="4.03381">
        <ele>1239.28</ele>
        <time>2002-03-27T08:53:54Z</time>
      </trkpt>
      <trkpt lat="44.71726" lon="4.03386">
        <ele>1240.24</ele>
        <time>2002-03-27T08:53:58Z</time>
      </trkpt>
      <trkpt lat="44.71722" lon="4.03387">
        <ele>1240.24</ele>
        <time>2002-03-27T08:54:03Z</time>
      </trkpt>
      <trkpt lat="44.71713" lon="4.03396">
        <ele>1242.16</ele>
        <time>2002-03-27T08:54:13Z</time>
      </trkpt>
      <trkpt lat="44.71709" lon="4.034">
        <ele>1242.64</ele>
        <time>2002-03-27T08:54:22Z</time>
      </trkpt>
      <trkpt lat="44.717" lon="4.03406">
        <ele>1244.56</ele>
        <time>2002-03-27T08:54:32Z</time>
      </trkpt>
      <trkpt lat="44.71691" lon="4.03418">
        <ele>1246.49</ele>
        <time>2002-03-27T08:54:50Z</time>
      </trkpt>
      <trkpt lat="44.71683" lon="4.0343">
        <ele>1246.97</ele>
        <time>2002-03-27T08:55:03Z</time>
      </trkpt>
      <trkpt lat="44.71676" lon="4.03436">
        <ele>1247.93</ele>
        <time>2002-03-27T08:55:09Z</time>
      </trkpt>
      <trkpt lat="44.71656" lon="4.0345">
        <ele>1249.85</ele>
        <time>2002-03-27T08:55:25Z</time>
      </trkpt>
      <trkpt lat="44.7164" lon="4.03456">
        <ele>1251.77</ele>
        <time>2002-03-27T08:55:36Z</time>
      </trkpt>
      <trkpt lat="44.71638" lon="4.03458">
        <ele>1251.29</ele>
        <time>2002-03-27T08:55:38Z</time>
      </trkpt>
      <trkpt lat="44.71627" lon="4.03467">
        <ele>1253.22</ele>
        <time>2002-03-27T08:55:50Z</time>
      </trkpt>
      <trkpt lat="44.71624" lon="4.03478">
        <ele>1253.7</ele>
        <time>2002-03-27T08:55:58Z</time>
      </trkpt>
      <trkpt lat="44.71624" lon="4.03481">
        <ele>1254.18</ele>
        <time>2002-03-27T08:56:00Z</time>
      </trkpt>
      <trkpt lat="44.71626" lon="4.03488">
        <ele>1254.66</ele>
        <time>2002-03-27T08:56:04Z</time>
      </trkpt>
      <trkpt lat="44.71625" lon="4.03502">
        <ele>1256.58</ele>
        <time>2002-03-27T08:56:15Z</time>
      </trkpt>
      <trkpt lat="44.71626" lon="4.03513">
        <ele>1258.5</ele>
        <time>2002-03-27T08:56:26Z</time>
      </trkpt>
      <trkpt lat="44.71627" lon="4.03521">
        <ele>1259.46</ele>
        <time>2002-03-27T08:56:33Z</time>
      </trkpt>
      <trkpt lat="44.71626" lon="4.03535">
        <ele>1261.87</ele>
        <time>2002-03-27T08:56:48Z</time>
      </trkpt>
      <trkpt lat="44.71621" lon="4.03552">
        <ele>1263.79</ele>
        <time>2002-03-27T08:56:59Z</time>
      </trkpt>
      <trkpt lat="44.7162" lon="4.03562">
        <ele>1265.23</ele>
        <time>2002-03-27T08:57:09Z</time>
      </trkpt>
      <trkpt lat="44.71617" lon="4.03576">
        <ele>1266.19</ele>
        <time>2002-03-27T08:57:20Z</time>
      </trkpt>
      <trkpt lat="44.71616" lon="4.03592">
        <ele>1268.12</ele>
        <time>2002-03-27T08:57:33Z</time>
      </trkpt>
      <trkpt lat="44.71611" lon="4.03608">
        <ele>1270.52</ele>
        <time>2002-03-27T08:57:47Z</time>
      </trkpt>
      <trkpt lat="44.71601" lon="4.03626">
        <ele>1271</ele>
        <time>2002-03-27T08:58:00Z</time>
      </trkpt>
      <trkpt lat="44.71594" lon="4.03637">
        <ele>1271.48</ele>
        <time>2002-03-27T08:58:11Z</time>
      </trkpt>
      <trkpt lat="44.71594" lon="4.03637">
        <ele>1272.92</ele>
        <time>2002-03-27T08:58:17Z</time>
      </trkpt>
      <trkpt lat="44.71594" lon="4.03637">
        <ele>1270.52</ele>
        <time>2002-03-27T08:58:24Z</time>
      </trkpt>
      <trkpt lat="44.71587" lon="4.03649">
        <ele>1271.48</ele>
        <time>2002-03-27T08:58:37Z</time>
      </trkpt>
      <trkpt lat="44.71582" lon="4.0366">
        <ele>1272.92</ele>
        <time>2002-03-27T08:58:49Z</time>
      </trkpt>
      <trkpt lat="44.71575" lon="4.03674">
        <ele>1273.88</ele>
        <time>2002-03-27T08:59:00Z</time>
      </trkpt>
      <trkpt lat="44.71569" lon="4.03685">
        <ele>1275.33</ele>
        <time>2002-03-27T08:59:11Z</time>
      </trkpt>
      <trkpt lat="44.71561" lon="4.03698">
        <ele>1275.81</ele>
        <time>2002-03-27T08:59:22Z</time>
      </trkpt>
      <trkpt lat="44.71554" lon="4.03706">
        <ele>1276.77</ele>
        <time>2002-03-27T08:59:28Z</time>
      </trkpt>
      <trkpt lat="44.71551" lon="4.0372">
        <ele>1277.25</ele>
        <time>2002-03-27T08:59:38Z</time>
      </trkpt>
      <trkpt lat="44.71547" lon="4.03736">
        <ele>1279.65</ele>
        <time>2002-03-27T08:59:49Z</time>
      </trkpt>
      <trkpt lat="44.71544" lon="4.0375">
        <ele>1280.61</ele>
        <time>2002-03-27T08:59:59Z</time>
      </trkpt>
      <trkpt lat="44.7154" lon="4.03764">
        <ele>1281.57</ele>
        <time>2002-03-27T09:00:11Z</time>
      </trkpt>
      <trkpt lat="44.71536" lon="4.03781">
        <ele>1283.5</ele>
        <time>2002-03-27T09:00:23Z</time>
      </trkpt>
      <trkpt lat="44.71527" lon="4.038">
        <ele>1284.46</ele>
        <time>2002-03-27T09:00:34Z</time>
      </trkpt>
      <trkpt lat="44.71523" lon="4.03816">
        <ele>1285.42</ele>
        <time>2002-03-27T09:00:43Z</time>
      </trkpt>
      <trkpt lat="44.71517" lon="4.03833">
        <ele>1286.86</ele>
        <time>2002-03-27T09:00:54Z</time>
      </trkpt>
      <trkpt lat="44.7151" lon="4.03849">
        <ele>1287.34</ele>
        <time>2002-03-27T09:01:04Z</time>
      </trkpt>
      <trkpt lat="44.71505" lon="4.03863">
        <ele>1288.3</ele>
        <time>2002-03-27T09:01:13Z</time>
      </trkpt>
      <trkpt lat="44.71502" lon="4.03872">
        <ele>1289.27</ele>
        <time>2002-03-27T09:01:21Z</time>
      </trkpt>
      <trkpt lat="44.71501" lon="4.03894">
        <ele>1290.23</ele>
        <time>2002-03-27T09:01:33Z</time>
      </trkpt>
      <trkpt lat="44.71497" lon="4.03907">
        <ele>1290.71</ele>
        <time>2002-03-27T09:01:43Z</time>
      </trkpt>
      <trkpt lat="44.71493" lon="4.03917">
        <ele>1291.67</ele>
        <time>2002-03-27T09:01:51Z</time>
      </trkpt>
      <trkpt lat="44.7149" lon="4.03931">
        <ele>1292.15</ele>
        <time>2002-03-27T09:02:01Z</time>
      </trkpt>
      <trkpt lat="44.71485" lon="4.03945">
        <ele>1293.11</ele>
        <time>2002-03-27T09:02:10Z</time>
      </trkpt>
      <trkpt lat="44.7148" lon="4.03967">
        <ele>1295.03</ele>
        <time>2002-03-27T09:02:25Z</time>
      </trkpt>
      <trkpt lat="44.71477" lon="4.03983">
        <ele>1296.48</ele>
        <time>2002-03-27T09:02:36Z</time>
      </trkpt>
      <trkpt lat="44.71472" lon="4.03997">
        <ele>1297.92</ele>
        <time>2002-03-27T09:02:48Z</time>
      </trkpt>
      <trkpt lat="44.71471" lon="4.04013">
        <ele>1298.4</ele>
        <time>2002-03-27T09:02:58Z</time>
      </trkpt>
      <trkpt lat="44.71466" lon="4.04031">
        <ele>1298.4</ele>
        <time>2002-03-27T09:03:14Z</time>
      </trkpt>
      <trkpt lat="44.71461" lon="4.04057">
        <ele>1300.32</ele>
        <time>2002-03-27T09:03:45Z</time>
      </trkpt>
      <trkpt lat="44.71462" lon="4.04064">
        <ele>1300.32</ele>
        <time>2002-03-27T09:03:49Z</time>
      </trkpt>
      <trkpt lat="44.71462" lon="4.04079">
        <ele>1300.32</ele>
        <time>2002-03-27T09:03:59Z</time>
      </trkpt>
      <trkpt lat="44.71449" lon="4.0412">
        <ele>1301.76</ele>
        <time>2002-03-27T09:04:25Z</time>
      </trkpt>
      <trkpt lat="44.71442" lon="4.04132">
        <ele>1302.24</ele>
        <time>2002-03-27T09:04:34Z</time>
      </trkpt>
      <trkpt lat="44.71437" lon="4.04149">
        <ele>1301.76</ele>
        <time>2002-03-27T09:04:44Z</time>
      </trkpt>
      <trkpt lat="44.71434" lon="4.04156">
        <ele>1301.76</ele>
        <time>2002-03-27T09:04:49Z</time>
      </trkpt>
      <trkpt lat="44.71424" lon="4.04176">
        <ele>1302.72</ele>
        <time>2002-03-27T09:05:00Z</time>
      </trkpt>
      <trkpt lat="44.71422" lon="4.0418">
        <ele>1301.76</ele>
        <time>2002-03-27T09:05:02Z</time>
      </trkpt>
      <trkpt lat="44.71416" lon="4.04192">
        <ele>1302.72</ele>
        <time>2002-03-27T09:05:10Z</time>
      </trkpt>
      <trkpt lat="44.71406" lon="4.04206">
        <ele>1303.2</ele>
        <time>2002-03-27T09:05:21Z</time>
      </trkpt>
      <trkpt lat="44.71405" lon="4.04211">
        <ele>1303.2</ele>
        <time>2002-03-27T09:05:25Z</time>
      </trkpt>
      <trkpt lat="44.71402" lon="4.04214">
        <ele>1304.65</ele>
        <time>2002-03-27T09:05:28Z</time>
      </trkpt>
      <trkpt lat="44.71395" lon="4.04225">
        <ele>1304.65</ele>
        <time>2002-03-27T09:05:41Z</time>
      </trkpt>
      <trkpt lat="44.71387" lon="4.04238">
        <ele>1306.57</ele>
        <time>2002-03-27T09:05:55Z</time>
      </trkpt>
      <trkpt lat="44.71379" lon="4.04249">
        <ele>1306.09</ele>
        <time>2002-03-27T09:06:05Z</time>
      </trkpt>
      <trkpt lat="44.71367" lon="4.04262">
        <ele>1307.53</ele>
        <time>2002-03-27T09:06:17Z</time>
      </trkpt>
      <trkpt lat="44.71359" lon="4.04273">
        <ele>1308.97</ele>
        <time>2002-03-27T09:06:34Z</time>
      </trkpt>
      <trkpt lat="44.71337" lon="4.04298">
        <ele>1312.34</ele>
        <time>2002-03-27T09:06:58Z</time>
      </trkpt>
      <trkpt lat="44.71324" lon="4.04312">
        <ele>1314.26</ele>
        <time>2002-03-27T09:07:22Z</time>
      </trkpt>
      <trkpt lat="44.71316" lon="4.04319">
        <ele>1315.7</ele>
        <time>2002-03-27T09:07:34Z</time>
      </trkpt>
      <trkpt lat="44.71307" lon="4.04336">
        <ele>1317.14</ele>
        <time>2002-03-27T09:07:45Z</time>
      </trkpt>
      <trkpt lat="44.71295" lon="4.0435">
        <ele>1318.1</ele>
        <time>2002-03-27T09:07:58Z</time>
      </trkpt>
      <trkpt lat="44.71285" lon="4.04359">
        <ele>1319.55</ele>
        <time>2002-03-27T09:08:07Z</time>
      </trkpt>
      <trkpt lat="44.71274" lon="4.04365">
        <ele>1320.99</ele>
        <time>2002-03-27T09:08:16Z</time>
      </trkpt>
      <trkpt lat="44.7126" lon="4.04375">
        <ele>1321.95</ele>
        <time>2002-03-27T09:08:28Z</time>
      </trkpt>
      <trkpt lat="44.71258" lon="4.04378">
        <ele>1322.91</ele>
        <time>2002-03-27T09:08:32Z</time>
      </trkpt>
      <trkpt lat="44.71249" lon="4.0439">
        <ele>1323.87</ele>
        <time>2002-03-27T09:08:43Z</time>
      </trkpt>
      <trkpt lat="44.71237" lon="4.04402">
        <ele>1324.83</ele>
        <time>2002-03-27T09:08:53Z</time>
      </trkpt>
      <trkpt lat="44.71225" lon="4.04415">
        <ele>1326.28</ele>
        <time>2002-03-27T09:09:05Z</time>
      </trkpt>
      <trkpt lat="44.71219" lon="4.04423">
        <ele>1327.72</ele>
        <time>2002-03-27T09:09:15Z</time>
      </trkpt>
      <trkpt lat="44.71213" lon="4.0443">
        <ele>1330.12</ele>
        <time>2002-03-27T09:09:26Z</time>
      </trkpt>
      <trkpt lat="44.71209" lon="4.04434">
        <ele>1330.6</ele>
        <time>2002-03-27T09:09:31Z</time>
      </trkpt>
      <trkpt lat="44.71207" lon="4.04437">
        <ele>1330.6</ele>
        <time>2002-03-27T09:09:34Z</time>
      </trkpt>
      <trkpt lat="44.71204" lon="4.04441">
        <ele>1331.08</ele>
        <time>2002-03-27T09:09:37Z</time>
      </trkpt>
      <trkpt lat="44.712" lon="4.04448">
        <ele>1332.04</ele>
        <time>2002-03-27T09:09:42Z</time>
      </trkpt>
      <trkpt lat="44.71193" lon="4.04456">
        <ele>1332.04</ele>
        <time>2002-03-27T09:09:50Z</time>
      </trkpt>
      <trkpt lat="44.71187" lon="4.04468">
        <ele>1332.52</ele>
        <time>2002-03-27T09:10:00Z</time>
      </trkpt>
      <trkpt lat="44.71178" lon="4.0448">
        <ele>1333.01</ele>
        <time>2002-03-27T09:10:10Z</time>
      </trkpt>
      <trkpt lat="44.71171" lon="4.04493">
        <ele>1332.52</ele>
        <time>2002-03-27T09:10:21Z</time>
      </trkpt>
      <trkpt lat="44.71162" lon="4.04504">
        <ele>1333.01</ele>
        <time>2002-03-27T09:10:30Z</time>
      </trkpt>
      <trkpt lat="44.7116" lon="4.04505">
        <ele>1333.49</ele>
        <time>2002-03-27T09:10:31Z</time>
      </trkpt>
      <trkpt lat="44.71153" lon="4.04513">
        <ele>1334.45</ele>
        <time>2002-03-27T09:10:39Z</time>
      </trkpt>
      <trkpt lat="44.71141" lon="4.0452">
        <ele>1336.37</ele>
        <time>2002-03-27T09:10:51Z</time>
      </trkpt>
      <trkpt lat="44.71126" lon="4.04527">
        <ele>1337.33</ele>
        <time>2002-03-27T09:11:04Z</time>
      </trkpt>
      <trkpt lat="44.71124" lon="4.04528">
        <ele>1333.97</ele>
        <time>2002-03-27T09:11:07Z</time>
      </trkpt>
      <trkpt lat="44.71124" lon="4.04528">
        <ele>1341.66</ele>
        <time>2002-03-27T09:11:09Z</time>
      </trkpt>
      <trkpt lat="44.71123" lon="4.04528">
        <ele>1331.56</ele>
        <time>2002-03-27T09:11:10Z</time>
      </trkpt>
      <trkpt lat="44.71123" lon="4.04528">
        <ele>1336.37</ele>
        <time>2002-03-27T09:11:11Z</time>
      </trkpt>
      <trkpt lat="44.7112" lon="4.04529">
        <ele>1336.37</ele>
        <time>2002-03-27T09:11:16Z</time>
      </trkpt>
      <trkpt lat="44.71106" lon="4.04534">
        <ele>1336.85</ele>
        <time>2002-03-27T09:11:27Z</time>
      </trkpt>
      <trkpt lat="44.71104" lon="4.04535">
        <ele>1336.85</ele>
        <time>2002-03-27T09:11:28Z</time>
      </trkpt>
      <trkpt lat="44.71089" lon="4.04551">
        <ele>1336.37</ele>
        <time>2002-03-27T09:11:41Z</time>
      </trkpt>
      <trkpt lat="44.71077" lon="4.04565">
        <ele>1336.37</ele>
        <time>2002-03-27T09:11:52Z</time>
      </trkpt>
      <trkpt lat="44.71073" lon="4.04572">
        <ele>1336.37</ele>
        <time>2002-03-27T09:11:59Z</time>
      </trkpt>
      <trkpt lat="44.7107" lon="4.04582">
        <ele>1335.89</ele>
        <time>2002-03-27T09:12:04Z</time>
      </trkpt>
      <trkpt lat="44.71067" lon="4.04594">
        <ele>1335.89</ele>
        <time>2002-03-27T09:12:12Z</time>
      </trkpt>
      <trkpt lat="44.71061" lon="4.04599">
        <ele>1334.45</ele>
        <time>2002-03-27T09:12:16Z</time>
      </trkpt>
      <trkpt lat="44.71049" lon="4.04616">
        <ele>1334.45</ele>
        <time>2002-03-27T09:12:27Z</time>
      </trkpt>
      <trkpt lat="44.71035" lon="4.04632">
        <ele>1333.01</ele>
        <time>2002-03-27T09:12:39Z</time>
      </trkpt>
      <trkpt lat="44.71034" lon="4.04633">
        <ele>1333.49</ele>
        <time>2002-03-27T09:12:43Z</time>
      </trkpt>
      <trkpt lat="44.71025" lon="4.04646">
        <ele>1333.01</ele>
        <time>2002-03-27T09:12:54Z</time>
      </trkpt>
      <trkpt lat="44.71013" lon="4.0466">
        <ele>1331.08</ele>
        <time>2002-03-27T09:13:05Z</time>
      </trkpt>
      <trkpt lat="44.71008" lon="4.04668">
        <ele>1330.6</ele>
        <time>2002-03-27T09:13:10Z</time>
      </trkpt>
      <trkpt lat="44.71" lon="4.04681">
        <ele>1329.64</ele>
        <time>2002-03-27T09:13:19Z</time>
      </trkpt>
      <trkpt lat="44.70994" lon="4.04687">
        <ele>1329.64</ele>
        <time>2002-03-27T09:13:24Z</time>
      </trkpt>
      <trkpt lat="44.70978" lon="4.04707">
        <ele>1328.68</ele>
        <time>2002-03-27T09:13:35Z</time>
      </trkpt>
      <trkpt lat="44.70976" lon="4.04713">
        <ele>1328.2</ele>
        <time>2002-03-27T09:13:47Z</time>
      </trkpt>
      <trkpt lat="44.70976" lon="4.04713">
        <ele>1327.72</ele>
        <time>2002-03-27T09:13:49Z</time>
      </trkpt>
      <trkpt lat="44.70967" lon="4.0473">
        <ele>1327.72</ele>
        <time>2002-03-27T09:14:01Z</time>
      </trkpt>
      <trkpt lat="44.70964" lon="4.04736">
        <ele>1327.72</ele>
        <time>2002-03-27T09:14:08Z</time>
      </trkpt>
      <trkpt lat="44.70958" lon="4.04741">
        <ele>1325.8</ele>
        <time>2002-03-27T09:14:12Z</time>
      </trkpt>
      <trkpt lat="44.70936" lon="4.04759">
        <ele>1325.31</ele>
        <time>2002-03-27T09:14:28Z</time>
      </trkpt>
      <trkpt lat="44.70918" lon="4.04776">
        <ele>1323.39</ele>
        <time>2002-03-27T09:14:43Z</time>
      </trkpt>
      <trkpt lat="44.70899" lon="4.04794">
        <ele>1322.43</ele>
        <time>2002-03-27T09:14:58Z</time>
      </trkpt>
      <trkpt lat="44.70897" lon="4.04796">
        <ele>1321.95</ele>
        <time>2002-03-27T09:15:00Z</time>
      </trkpt>
      <trkpt lat="44.70893" lon="4.04802">
        <ele>1321.95</ele>
        <time>2002-03-27T09:15:04Z</time>
      </trkpt>
      <trkpt lat="44.70887" lon="4.04808">
        <ele>1321.47</ele>
        <time>2002-03-27T09:15:09Z</time>
      </trkpt>
      <trkpt lat="44.70884" lon="4.04811">
        <ele>1320.99</ele>
        <time>2002-03-27T09:15:12Z</time>
      </trkpt>
      <trkpt lat="44.70879" lon="4.04817">
        <ele>1320.99</ele>
        <time>2002-03-27T09:15:17Z</time>
      </trkpt>
      <trkpt lat="44.70863" lon="4.0484">
        <ele>1318.59</ele>
        <time>2002-03-27T09:15:32Z</time>
      </trkpt>
      <trkpt lat="44.70861" lon="4.04844">
        <ele>1318.1</ele>
        <time>2002-03-27T09:15:35Z</time>
      </trkpt>
      <trkpt lat="44.70858" lon="4.04849">
        <ele>1318.1</ele>
        <time>2002-03-27T09:15:39Z</time>
      </trkpt>
      <trkpt lat="44.7084" lon="4.04869">
        <ele>1318.1</ele>
        <time>2002-03-27T09:15:54Z</time>
      </trkpt>
      <trkpt lat="44.70823" lon="4.04886">
        <ele>1317.62</ele>
        <time>2002-03-27T09:16:07Z</time>
      </trkpt>
      <trkpt lat="44.70808" lon="4.049">
        <ele>1316.66</ele>
        <time>2002-03-27T09:16:21Z</time>
      </trkpt>
      <trkpt lat="44.70792" lon="4.04914">
        <ele>1317.62</ele>
        <time>2002-03-27T09:16:35Z</time>
      </trkpt>
      <trkpt lat="44.70774" lon="4.04932">
        <ele>1316.66</ele>
        <time>2002-03-27T09:16:50Z</time>
      </trkpt>
      <trkpt lat="44.70754" lon="4.04947">
        <ele>1316.66</ele>
        <time>2002-03-27T09:17:06Z</time>
      </trkpt>
      <trkpt lat="44.70734" lon="4.04961">
        <ele>1317.14</ele>
        <time>2002-03-27T09:17:22Z</time>
      </trkpt>
      <trkpt lat="44.70715" lon="4.04975">
        <ele>1317.62</ele>
        <time>2002-03-27T09:17:36Z</time>
      </trkpt>
      <trkpt lat="44.70697" lon="4.04992">
        <ele>1317.62</ele>
        <time>2002-03-27T09:17:51Z</time>
      </trkpt>
      <trkpt lat="44.70684" lon="4.05012">
        <ele>1318.59</ele>
        <time>2002-03-27T09:18:06Z</time>
      </trkpt>
      <trkpt lat="44.70667" lon="4.05038">
        <ele>1318.1</ele>
        <time>2002-03-27T09:18:23Z</time>
      </trkpt>
      <trkpt lat="44.70657" lon="4.05066">
        <ele>1318.59</ele>
        <time>2002-03-27T09:18:39Z</time>
      </trkpt>
      <trkpt lat="44.70646" lon="4.05084">
        <ele>1320.99</ele>
        <time>2002-03-27T09:18:54Z</time>
      </trkpt>
      <trkpt lat="44.70646" lon="4.05085">
        <ele>1320.51</ele>
        <time>2002-03-27T09:19:34Z</time>
      </trkpt>
      <trkpt lat="44.70644" lon="4.05092">
        <ele>1321.95</ele>
        <time>2002-03-27T09:19:40Z</time>
      </trkpt>
      <trkpt lat="44.70635" lon="4.05104">
        <ele>1322.91</ele>
        <time>2002-03-27T09:19:55Z</time>
      </trkpt>
      <trkpt lat="44.70626" lon="4.05118">
        <ele>1325.31</ele>
        <time>2002-03-27T09:20:30Z</time>
      </trkpt>
      <trkpt lat="44.7061" lon="4.05141">
        <ele>1327.24</ele>
        <time>2002-03-27T09:20:47Z</time>
      </trkpt>
      <trkpt lat="44.70596" lon="4.05155">
        <ele>1328.68</ele>
        <time>2002-03-27T09:20:59Z</time>
      </trkpt>
      <trkpt lat="44.70581" lon="4.05172">
        <ele>1330.6</ele>
        <time>2002-03-27T09:21:14Z</time>
      </trkpt>
      <trkpt lat="44.7057" lon="4.05185">
        <ele>1330.6</ele>
        <time>2002-03-27T09:21:24Z</time>
      </trkpt>
      <trkpt lat="44.70567" lon="4.05186">
        <ele>1331.56</ele>
        <time>2002-03-27T09:21:44Z</time>
      </trkpt>
      <trkpt lat="44.70567" lon="4.05187">
        <ele>1331.08</ele>
        <time>2002-03-27T09:21:51Z</time>
      </trkpt>
      <trkpt lat="44.70562" lon="4.05192">
        <ele>1331.08</ele>
        <time>2002-03-27T09:21:56Z</time>
      </trkpt>
      <trkpt lat="44.70544" lon="4.0521">
        <ele>1331.08</ele>
        <time>2002-03-27T09:22:12Z</time>
      </trkpt>
      <trkpt lat="44.70525" lon="4.05227">
        <ele>1330.6</ele>
        <time>2002-03-27T09:22:27Z</time>
      </trkpt>
      <trkpt lat="44.70502" lon="4.05245">
        <ele>1330.12</ele>
        <time>2002-03-27T09:22:43Z</time>
      </trkpt>
      <trkpt lat="44.70483" lon="4.05264">
        <ele>1328.68</ele>
        <time>2002-03-27T09:22:59Z</time>
      </trkpt>
      <trkpt lat="44.7048" lon="4.05268">
        <ele>1328.68</ele>
        <time>2002-03-27T09:23:19Z</time>
      </trkpt>
      <trkpt lat="44.70479" lon="4.0527">
        <ele>1329.64</ele>
        <time>2002-03-27T09:24:33Z</time>
      </trkpt>
      <trkpt lat="44.7048" lon="4.05291">
        <ele>1328.2</ele>
        <time>2002-03-27T09:24:48Z</time>
      </trkpt>
      <trkpt lat="44.70482" lon="4.05298">
        <ele>1327.72</ele>
        <time>2002-03-27T09:25:00Z</time>
      </trkpt>
      <trkpt lat="44.7048" lon="4.05306">
        <ele>1327.24</ele>
        <time>2002-03-27T09:25:04Z</time>
      </trkpt>
      <trkpt lat="44.70461" lon="4.05317">
        <ele>1327.72</ele>
        <time>2002-03-27T09:25:19Z</time>
      </trkpt>
      <trkpt lat="44.70439" lon="4.05316">
        <ele>1327.72</ele>
        <time>2002-03-27T09:25:35Z</time>
      </trkpt>
      <trkpt lat="44.70438" lon="4.05315">
        <ele>1327.72</ele>
        <time>2002-03-27T09:25:36Z</time>
      </trkpt>
      <trkpt lat="44.70434" lon="4.05317">
        <ele>1327.24</ele>
        <time>2002-03-27T09:25:40Z</time>
      </trkpt>
      <trkpt lat="44.70414" lon="4.05325">
        <ele>1327.72</ele>
        <time>2002-03-27T09:25:54Z</time>
      </trkpt>
      <trkpt lat="44.70409" lon="4.05328">
        <ele>1328.68</ele>
        <time>2002-03-27T09:25:58Z</time>
      </trkpt>
      <trkpt lat="44.70386" lon="4.05341">
        <ele>1328.68</ele>
        <time>2002-03-27T09:26:14Z</time>
      </trkpt>
      <trkpt lat="44.70367" lon="4.05358">
        <ele>1328.2</ele>
        <time>2002-03-27T09:26:28Z</time>
      </trkpt>
      <trkpt lat="44.70354" lon="4.05371">
        <ele>1328.68</ele>
        <time>2002-03-27T09:26:38Z</time>
      </trkpt>
      <trkpt lat="44.70333" lon="4.05389">
        <ele>1327.72</ele>
        <time>2002-03-27T09:26:54Z</time>
      </trkpt>
      <trkpt lat="44.70306" lon="4.05404">
        <ele>1328.2</ele>
        <time>2002-03-27T09:27:13Z</time>
      </trkpt>
      <trkpt lat="44.70277" lon="4.05414">
        <ele>1328.68</ele>
        <time>2002-03-27T09:27:32Z</time>
      </trkpt>
      <trkpt lat="44.70252" lon="4.05421">
        <ele>1328.68</ele>
        <time>2002-03-27T09:27:49Z</time>
      </trkpt>
      <trkpt lat="44.7023" lon="4.05427">
        <ele>1328.68</ele>
        <time>2002-03-27T09:28:04Z</time>
      </trkpt>
      <trkpt lat="44.7021" lon="4.0543">
        <ele>1329.16</ele>
        <time>2002-03-27T09:28:18Z</time>
      </trkpt>
      <trkpt lat="44.70191" lon="4.0543">
        <ele>1329.64</ele>
        <time>2002-03-27T09:28:33Z</time>
      </trkpt>
      <trkpt lat="44.70184" lon="4.0543">
        <ele>1329.64</ele>
        <time>2002-03-27T09:28:37Z</time>
      </trkpt>
      <trkpt lat="44.7017" lon="4.05429">
        <ele>1329.64</ele>
        <time>2002-03-27T09:28:47Z</time>
      </trkpt>
      <trkpt lat="44.70167" lon="4.0543">
        <ele>1329.16</ele>
        <time>2002-03-27T09:28:49Z</time>
      </trkpt>
      <trkpt lat="44.70163" lon="4.05429">
        <ele>1329.16</ele>
        <time>2002-03-27T09:28:52Z</time>
      </trkpt>
      <trkpt lat="44.70147" lon="4.0543">
        <ele>1328.68</ele>
        <time>2002-03-27T09:29:05Z</time>
      </trkpt>
      <trkpt lat="44.70133" lon="4.05431">
        <ele>1328.68</ele>
        <time>2002-03-27T09:29:16Z</time>
      </trkpt>
      <trkpt lat="44.7012" lon="4.0543">
        <ele>1328.68</ele>
        <time>2002-03-27T09:29:26Z</time>
      </trkpt>
      <trkpt lat="44.70098" lon="4.0543">
        <ele>1328.68</ele>
        <time>2002-03-27T09:29:42Z</time>
      </trkpt>
      <trkpt lat="44.7008" lon="4.05431">
        <ele>1329.16</ele>
        <time>2002-03-27T09:29:54Z</time>
      </trkpt>
      <trkpt lat="44.70054" lon="4.05428">
        <ele>1329.16</ele>
        <time>2002-03-27T09:30:09Z</time>
      </trkpt>
      <trkpt lat="44.70033" lon="4.05432">
        <ele>1328.68</ele>
        <time>2002-03-27T09:30:23Z</time>
      </trkpt>
      <trkpt lat="44.70008" lon="4.05444">
        <ele>1328.68</ele>
        <time>2002-03-27T09:30:38Z</time>
      </trkpt>
      <trkpt lat="44.69986" lon="4.05452">
        <ele>1329.16</ele>
        <time>2002-03-27T09:30:52Z</time>
      </trkpt>
      <trkpt lat="44.69979" lon="4.05456">
        <ele>1329.16</ele>
        <time>2002-03-27T09:30:57Z</time>
      </trkpt>
      <trkpt lat="44.69966" lon="4.0546">
        <ele>1330.12</ele>
        <time>2002-03-27T09:31:11Z</time>
      </trkpt>
      <trkpt lat="44.69966" lon="4.0546">
        <ele>1329.64</ele>
        <time>2002-03-27T09:31:35Z</time>
      </trkpt>
      <trkpt lat="44.69964" lon="4.05458">
        <ele>1330.6</ele>
        <time>2002-03-27T09:32:04Z</time>
      </trkpt>
      <trkpt lat="44.69965" lon="4.0546">
        <ele>1330.6</ele>
        <time>2002-03-27T09:32:31Z</time>
      </trkpt>
      <trkpt lat="44.69965" lon="4.05462">
        <ele>1330.6</ele>
        <time>2002-03-27T09:32:33Z</time>
      </trkpt>
      <trkpt lat="44.6996" lon="4.05473">
        <ele>1330.12</ele>
        <time>2002-03-27T09:32:40Z</time>
      </trkpt>
      <trkpt lat="44.69947" lon="4.05497">
        <ele>1331.08</ele>
        <time>2002-03-27T09:32:56Z</time>
      </trkpt>
      <trkpt lat="44.69946" lon="4.05499">
        <ele>1323.39</ele>
        <time>2002-03-27T09:33:02Z</time>
      </trkpt>
      <trkpt lat="44.69946" lon="4.05499">
        <ele>1331.08</ele>
        <time>2002-03-27T09:33:03Z</time>
      </trkpt>
      <trkpt lat="44.69946" lon="4.05502">
        <ele>1327.72</ele>
        <time>2002-03-27T09:33:07Z</time>
      </trkpt>
      <trkpt lat="44.69945" lon="4.05504">
        <ele>1332.04</ele>
        <time>2002-03-27T09:33:09Z</time>
      </trkpt>
      <trkpt lat="44.69944" lon="4.05507">
        <ele>1333.01</ele>
        <time>2002-03-27T09:33:11Z</time>
      </trkpt>
      <trkpt lat="44.69943" lon="4.05508">
        <ele>1328.68</ele>
        <time>2002-03-27T09:33:12Z</time>
      </trkpt>
      <trkpt lat="44.69941" lon="4.05513">
        <ele>1333.01</ele>
        <time>2002-03-27T09:33:15Z</time>
      </trkpt>
      <trkpt lat="44.69941" lon="4.05514">
        <ele>1329.64</ele>
        <time>2002-03-27T09:33:16Z</time>
      </trkpt>
      <trkpt lat="44.69939" lon="4.05517">
        <ele>1333.97</ele>
        <time>2002-03-27T09:33:18Z</time>
      </trkpt>
      <trkpt lat="44.69939" lon="4.05518">
        <ele>1330.12</ele>
        <time>2002-03-27T09:33:19Z</time>
      </trkpt>
      <trkpt lat="44.69938" lon="4.05519">
        <ele>1330.12</ele>
        <time>2002-03-27T09:33:20Z</time>
      </trkpt>
      <trkpt lat="44.69935" lon="4.05525">
        <ele>1329.64</ele>
        <time>2002-03-27T09:33:24Z</time>
      </trkpt>
      <trkpt lat="44.69933" lon="4.0553">
        <ele>1329.64</ele>
        <time>2002-03-27T09:33:27Z</time>
      </trkpt>
      <trkpt lat="44.6992" lon="4.05556">
        <ele>1330.6</ele>
        <time>2002-03-27T09:33:43Z</time>
      </trkpt>
      <trkpt lat="44.69919" lon="4.05557">
        <ele>1331.08</ele>
        <time>2002-03-27T09:33:44Z</time>
      </trkpt>
      <trkpt lat="44.69916" lon="4.05565">
        <ele>1330.6</ele>
        <time>2002-03-27T09:33:49Z</time>
      </trkpt>
      <trkpt lat="44.69905" lon="4.05588">
        <ele>1331.08</ele>
        <time>2002-03-27T09:34:04Z</time>
      </trkpt>
      <trkpt lat="44.69888" lon="4.05614">
        <ele>1333.01</ele>
        <time>2002-03-27T09:34:20Z</time>
      </trkpt>
      <trkpt lat="44.69884" lon="4.05621">
        <ele>1333.01</ele>
        <time>2002-03-27T09:34:24Z</time>
      </trkpt>
      <trkpt lat="44.69876" lon="4.05629">
        <ele>1333.49</ele>
        <time>2002-03-27T09:34:36Z</time>
      </trkpt>
      <trkpt lat="44.69874" lon="4.05633">
        <ele>1334.45</ele>
        <time>2002-03-27T09:34:44Z</time>
      </trkpt>
      <trkpt lat="44.69864" lon="4.05649">
        <ele>1335.41</ele>
        <time>2002-03-27T09:34:55Z</time>
      </trkpt>
      <trkpt lat="44.69861" lon="4.05654">
        <ele>1335.89</ele>
        <time>2002-03-27T09:34:59Z</time>
      </trkpt>
      <trkpt lat="44.69859" lon="4.05663">
        <ele>1335.89</ele>
        <time>2002-03-27T09:35:04Z</time>
      </trkpt>
      <trkpt lat="44.69858" lon="4.05666">
        <ele>1336.37</ele>
        <time>2002-03-27T09:35:06Z</time>
      </trkpt>
      <trkpt lat="44.69855" lon="4.05672">
        <ele>1335.89</ele>
        <time>2002-03-27T09:35:10Z</time>
      </trkpt>
      <trkpt lat="44.6984" lon="4.05703">
        <ele>1336.37</ele>
        <time>2002-03-27T09:35:27Z</time>
      </trkpt>
      <trkpt lat="44.69825" lon="4.05727">
        <ele>1336.37</ele>
        <time>2002-03-27T09:35:42Z</time>
      </trkpt>
      <trkpt lat="44.69811" lon="4.05748">
        <ele>1335.89</ele>
        <time>2002-03-27T09:35:57Z</time>
      </trkpt>
      <trkpt lat="44.69809" lon="4.05752">
        <ele>1335.89</ele>
        <time>2002-03-27T09:36:00Z</time>
      </trkpt>
      <trkpt lat="44.69792" lon="4.05773">
        <ele>1335.89</ele>
        <time>2002-03-27T09:36:15Z</time>
      </trkpt>
      <trkpt lat="44.69777" lon="4.05792">
        <ele>1335.89</ele>
        <time>2002-03-27T09:36:29Z</time>
      </trkpt>
      <trkpt lat="44.69776" lon="4.05795">
        <ele>1335.89</ele>
        <time>2002-03-27T09:36:31Z</time>
      </trkpt>
      <trkpt lat="44.69773" lon="4.05802">
        <ele>1336.37</ele>
        <time>2002-03-27T09:36:36Z</time>
      </trkpt>
      <trkpt lat="44.69769" lon="4.0582">
        <ele>1336.37</ele>
        <time>2002-03-27T09:36:47Z</time>
      </trkpt>
      <trkpt lat="44.69763" lon="4.05847">
        <ele>1336.85</ele>
        <time>2002-03-27T09:37:03Z</time>
      </trkpt>
      <trkpt lat="44.69763" lon="4.05859">
        <ele>1336.37</ele>
        <time>2002-03-27T09:37:11Z</time>
      </trkpt>
      <trkpt lat="44.69764" lon="4.05866">
        <ele>1336.85</ele>
        <time>2002-03-27T09:37:16Z</time>
      </trkpt>
      <trkpt lat="44.69764" lon="4.05869">
        <ele>1336.85</ele>
        <time>2002-03-27T09:37:18Z</time>
      </trkpt>
      <trkpt lat="44.69771" lon="4.0589">
        <ele>1336.37</ele>
        <time>2002-03-27T09:37:31Z</time>
      </trkpt>
      <trkpt lat="44.69774" lon="4.05898">
        <ele>1336.37</ele>
        <time>2002-03-27T09:37:36Z</time>
      </trkpt>
      <trkpt lat="44.6978" lon="4.05917">
        <ele>1336.85</ele>
        <time>2002-03-27T09:37:46Z</time>
      </trkpt>
      <trkpt lat="44.69787" lon="4.0594">
        <ele>1336.37</ele>
        <time>2002-03-27T09:37:58Z</time>
      </trkpt>
      <trkpt lat="44.69795" lon="4.05965">
        <ele>1335.89</ele>
        <time>2002-03-27T09:38:11Z</time>
      </trkpt>
      <trkpt lat="44.69805" lon="4.05979">
        <ele>1335.41</ele>
        <time>2002-03-27T09:38:24Z</time>
      </trkpt>
      <trkpt lat="44.69809" lon="4.05997">
        <ele>1334.45</ele>
        <time>2002-03-27T09:38:34Z</time>
      </trkpt>
      <trkpt lat="44.69811" lon="4.06002">
        <ele>1333.49</ele>
        <time>2002-03-27T09:38:37Z</time>
      </trkpt>
      <trkpt lat="44.69812" lon="4.06006">
        <ele>1333.97</ele>
        <time>2002-03-27T09:38:39Z</time>
      </trkpt>
      <trkpt lat="44.69803" lon="4.0603">
        <ele>1333.49</ele>
        <time>2002-03-27T09:38:49Z</time>
      </trkpt>
      <trkpt lat="44.69802" lon="4.06039">
        <ele>1333.49</ele>
        <time>2002-03-27T09:38:53Z</time>
      </trkpt>
      <trkpt lat="44.69799" lon="4.06048">
        <ele>1333.97</ele>
        <time>2002-03-27T09:38:57Z</time>
      </trkpt>
      <trkpt lat="44.6979" lon="4.06069">
        <ele>1333.01</ele>
        <time>2002-03-27T09:39:08Z</time>
      </trkpt>
      <trkpt lat="44.69787" lon="4.06085">
        <ele>1333.01</ele>
        <time>2002-03-27T09:39:18Z</time>
      </trkpt>
      <trkpt lat="44.69779" lon="4.06125">
        <ele>1331.08</ele>
        <time>2002-03-27T09:39:36Z</time>
      </trkpt>
      <trkpt lat="44.69776" lon="4.06149">
        <ele>1329.16</ele>
        <time>2002-03-27T09:39:46Z</time>
      </trkpt>
      <trkpt lat="44.69762" lon="4.06185">
        <ele>1328.68</ele>
        <time>2002-03-27T09:40:02Z</time>
      </trkpt>
      <trkpt lat="44.69754" lon="4.06225">
        <ele>1326.76</ele>
        <time>2002-03-27T09:40:18Z</time>
      </trkpt>
      <trkpt lat="44.69738" lon="4.06285">
        <ele>1325.31</ele>
        <time>2002-03-27T09:40:38Z</time>
      </trkpt>
      <trkpt lat="44.69734" lon="4.06321">
        <ele>1324.35</ele>
        <time>2002-03-27T09:40:54Z</time>
      </trkpt>
      <trkpt lat="44.69732" lon="4.06354">
        <ele>1323.87</ele>
        <time>2002-03-27T09:41:09Z</time>
      </trkpt>
      <trkpt lat="44.69731" lon="4.06386">
        <ele>1324.35</ele>
        <time>2002-03-27T09:41:24Z</time>
      </trkpt>
      <trkpt lat="44.69729" lon="4.06399">
        <ele>1323.39</ele>
        <time>2002-03-27T09:41:37Z</time>
      </trkpt>
      <trkpt lat="44.69726" lon="4.06413">
        <ele>1323.39</ele>
        <time>2002-03-27T09:41:57Z</time>
      </trkpt>
      <trkpt lat="44.69725" lon="4.06418">
        <ele>1323.39</ele>
        <time>2002-03-27T09:42:15Z</time>
      </trkpt>
      <trkpt lat="44.69729" lon="4.06426">
        <ele>1323.39</ele>
        <time>2002-03-27T09:42:20Z</time>
      </trkpt>
      <trkpt lat="44.69735" lon="4.06438">
        <ele>1323.39</ele>
        <time>2002-03-27T09:42:31Z</time>
      </trkpt>
      <trkpt lat="44.69738" lon="4.06441">
        <ele>1322.91</ele>
        <time>2002-03-27T09:42:35Z</time>
      </trkpt>
      <trkpt lat="44.69747" lon="4.06454">
        <ele>1323.39</ele>
        <time>2002-03-27T09:42:46Z</time>
      </trkpt>
      <trkpt lat="44.6976" lon="4.06471">
        <ele>1323.39</ele>
        <time>2002-03-27T09:42:59Z</time>
      </trkpt>
      <trkpt lat="44.69774" lon="4.06485">
        <ele>1323.39</ele>
        <time>2002-03-27T09:43:12Z</time>
      </trkpt>
      <trkpt lat="44.69789" lon="4.06501">
        <ele>1322.91</ele>
        <time>2002-03-27T09:43:22Z</time>
      </trkpt>
      <trkpt lat="44.69792" lon="4.06506">
        <ele>1321.95</ele>
        <time>2002-03-27T09:43:25Z</time>
      </trkpt>
      <trkpt lat="44.69795" lon="4.06508">
        <ele>1322.91</ele>
        <time>2002-03-27T09:43:27Z</time>
      </trkpt>
      <trkpt lat="44.69805" lon="4.06525">
        <ele>1322.91</ele>
        <time>2002-03-27T09:43:40Z</time>
      </trkpt>
      <trkpt lat="44.69814" lon="4.06549">
        <ele>1322.43</ele>
        <time>2002-03-27T09:43:54Z</time>
      </trkpt>
      <trkpt lat="44.69824" lon="4.06567">
        <ele>1321.47</ele>
        <time>2002-03-27T09:44:10Z</time>
      </trkpt>
      <trkpt lat="44.69828" lon="4.06576">
        <ele>1320.99</ele>
        <time>2002-03-27T09:44:34Z</time>
      </trkpt>
      <trkpt lat="44.6984" lon="4.06598">
        <ele>1318.59</ele>
        <time>2002-03-27T09:44:48Z</time>
      </trkpt>
      <trkpt lat="44.69849" lon="4.06615">
        <ele>1317.62</ele>
        <time>2002-03-27T09:44:59Z</time>
      </trkpt>
      <trkpt lat="44.69854" lon="4.06627">
        <ele>1315.7</ele>
        <time>2002-03-27T09:45:07Z</time>
      </trkpt>
      <trkpt lat="44.69862" lon="4.06643">
        <ele>1315.22</ele>
        <time>2002-03-27T09:45:17Z</time>
      </trkpt>
      <trkpt lat="44.69866" lon="4.06648">
        <ele>1314.74</ele>
        <time>2002-03-27T09:45:21Z</time>
      </trkpt>
      <trkpt lat="44.69872" lon="4.06661">
        <ele>1312.82</ele>
        <time>2002-03-27T09:45:28Z</time>
      </trkpt>
      <trkpt lat="44.69876" lon="4.06668">
        <ele>1312.82</ele>
        <time>2002-03-27T09:45:32Z</time>
      </trkpt>
      <trkpt lat="44.69878" lon="4.0667">
        <ele>1311.86</ele>
        <time>2002-03-27T09:45:34Z</time>
      </trkpt>
      <trkpt lat="44.69882" lon="4.06678">
        <ele>1311.38</ele>
        <time>2002-03-27T09:45:39Z</time>
      </trkpt>
      <trkpt lat="44.69886" lon="4.06689">
        <ele>1309.93</ele>
        <time>2002-03-27T09:45:46Z</time>
      </trkpt>
      <trkpt lat="44.69891" lon="4.06693">
        <ele>1308.97</ele>
        <time>2002-03-27T09:45:50Z</time>
      </trkpt>
      <trkpt lat="44.699" lon="4.06702">
        <ele>1308.49</ele>
        <time>2002-03-27T09:45:56Z</time>
      </trkpt>
      <trkpt lat="44.69907" lon="4.06717">
        <ele>1307.05</ele>
        <time>2002-03-27T09:46:06Z</time>
      </trkpt>
      <trkpt lat="44.69921" lon="4.06733">
        <ele>1306.09</ele>
        <time>2002-03-27T09:46:16Z</time>
      </trkpt>
      <trkpt lat="44.69928" lon="4.06752">
        <ele>1305.61</ele>
        <time>2002-03-27T09:46:26Z</time>
      </trkpt>
      <trkpt lat="44.69927" lon="4.06784">
        <ele>1305.13</ele>
        <time>2002-03-27T09:46:41Z</time>
      </trkpt>
      <trkpt lat="44.69932" lon="4.06807">
        <ele>1304.17</ele>
        <time>2002-03-27T09:46:52Z</time>
      </trkpt>
      <trkpt lat="44.69934" lon="4.06812">
        <ele>1303.69</ele>
        <time>2002-03-27T09:46:55Z</time>
      </trkpt>
      <trkpt lat="44.69936" lon="4.0682">
        <ele>1303.69</ele>
        <time>2002-03-27T09:46:59Z</time>
      </trkpt>
      <trkpt lat="44.69946" lon="4.0685">
        <ele>1303.69</ele>
        <time>2002-03-27T09:47:15Z</time>
      </trkpt>
      <trkpt lat="44.69946" lon="4.06864">
        <ele>1304.17</ele>
        <time>2002-03-27T09:47:28Z</time>
      </trkpt>
      <trkpt lat="44.69944" lon="4.06868">
        <ele>1303.69</ele>
        <time>2002-03-27T09:47:30Z</time>
      </trkpt>
      <trkpt lat="44.69941" lon="4.06875">
        <ele>1303.69</ele>
        <time>2002-03-27T09:49:38Z</time>
      </trkpt>
      <trkpt lat="44.69944" lon="4.06879">
        <ele>1303.69</ele>
        <time>2002-03-27T09:49:53Z</time>
      </trkpt>
      <trkpt lat="44.69952" lon="4.06892">
        <ele>1305.13</ele>
        <time>2002-03-27T09:50:02Z</time>
      </trkpt>
      <trkpt lat="44.69961" lon="4.06916">
        <ele>1306.09</ele>
        <time>2002-03-27T09:50:16Z</time>
      </trkpt>
      <trkpt lat="44.69966" lon="4.06938">
        <ele>1307.05</ele>
        <time>2002-03-27T09:50:29Z</time>
      </trkpt>
      <trkpt lat="44.69978" lon="4.06959">
        <ele>1307.05</ele>
        <time>2002-03-27T09:50:43Z</time>
      </trkpt>
      <trkpt lat="44.69982" lon="4.06969">
        <ele>1307.05</ele>
        <time>2002-03-27T09:50:49Z</time>
      </trkpt>
      <trkpt lat="44.69994" lon="4.06992">
        <ele>1305.61</ele>
        <time>2002-03-27T09:51:04Z</time>
      </trkpt>
      <trkpt lat="44.70003" lon="4.07011">
        <ele>1303.69</ele>
        <time>2002-03-27T09:51:18Z</time>
      </trkpt>
      <trkpt lat="44.70025" lon="4.0704">
        <ele>1300.8</ele>
        <time>2002-03-27T09:51:36Z</time>
      </trkpt>
      <trkpt lat="44.70041" lon="4.07069">
        <ele>1299.84</ele>
        <time>2002-03-27T09:51:52Z</time>
      </trkpt>
      <trkpt lat="44.70053" lon="4.07097">
        <ele>1298.88</ele>
        <time>2002-03-27T09:52:08Z</time>
      </trkpt>
      <trkpt lat="44.70064" lon="4.07124">
        <ele>1297.92</ele>
        <time>2002-03-27T09:52:22Z</time>
      </trkpt>
      <trkpt lat="44.70077" lon="4.07154">
        <ele>1296.96</ele>
        <time>2002-03-27T09:52:38Z</time>
      </trkpt>
      <trkpt lat="44.70089" lon="4.07181">
        <ele>1295.51</ele>
        <time>2002-03-27T09:52:53Z</time>
      </trkpt>
      <trkpt lat="44.70101" lon="4.07213">
        <ele>1295.51</ele>
        <time>2002-03-27T09:53:09Z</time>
      </trkpt>
      <trkpt lat="44.70103" lon="4.07221">
        <ele>1295.51</ele>
        <time>2002-03-27T09:53:13Z</time>
      </trkpt>
      <trkpt lat="44.70106" lon="4.07231">
        <ele>1295.51</ele>
        <time>2002-03-27T09:53:18Z</time>
      </trkpt>
      <trkpt lat="44.70118" lon="4.07257">
        <ele>1295.51</ele>
        <time>2002-03-27T09:53:34Z</time>
      </trkpt>
      <trkpt lat="44.70124" lon="4.07271">
        <ele>1295.03</ele>
        <time>2002-03-27T09:53:49Z</time>
      </trkpt>
      <trkpt lat="44.70123" lon="4.07273">
        <ele>1295.99</ele>
        <time>2002-03-27T09:55:19Z</time>
      </trkpt>
      <trkpt lat="44.70125" lon="4.07284">
        <ele>1295.03</ele>
        <time>2002-03-27T09:55:25Z</time>
      </trkpt>
      <trkpt lat="44.70127" lon="4.0729">
        <ele>1295.51</ele>
        <time>2002-03-27T09:55:29Z</time>
      </trkpt>
      <trkpt lat="44.70138" lon="4.07321">
        <ele>1295.51</ele>
        <time>2002-03-27T09:55:47Z</time>
      </trkpt>
      <trkpt lat="44.70148" lon="4.07338">
        <ele>1295.99</ele>
        <time>2002-03-27T09:55:58Z</time>
      </trkpt>
      <trkpt lat="44.70157" lon="4.07362">
        <ele>1296.96</ele>
        <time>2002-03-27T09:56:13Z</time>
      </trkpt>
      <trkpt lat="44.70171" lon="4.07386">
        <ele>1296.96</ele>
        <time>2002-03-27T09:56:28Z</time>
      </trkpt>
      <trkpt lat="44.70176" lon="4.07396">
        <ele>1297.92</ele>
        <time>2002-03-27T09:56:35Z</time>
      </trkpt>
      <trkpt lat="44.7019" lon="4.07421">
        <ele>1298.88</ele>
        <time>2002-03-27T09:56:51Z</time>
      </trkpt>
      <trkpt lat="44.70197" lon="4.07437">
        <ele>1298.88</ele>
        <time>2002-03-27T09:57:01Z</time>
      </trkpt>
      <trkpt lat="44.70209" lon="4.07459">
        <ele>1300.32</ele>
        <time>2002-03-27T09:57:15Z</time>
      </trkpt>
      <trkpt lat="44.70212" lon="4.07468">
        <ele>1300.32</ele>
        <time>2002-03-27T09:57:21Z</time>
      </trkpt>
      <trkpt lat="44.7022" lon="4.07483">
        <ele>1301.28</ele>
        <time>2002-03-27T09:57:31Z</time>
      </trkpt>
      <trkpt lat="44.70223" lon="4.07489">
        <ele>1301.28</ele>
        <time>2002-03-27T09:57:35Z</time>
      </trkpt>
      <trkpt lat="44.70228" lon="4.07499">
        <ele>1302.24</ele>
        <time>2002-03-27T09:57:41Z</time>
      </trkpt>
      <trkpt lat="44.70239" lon="4.07523">
        <ele>1303.2</ele>
        <time>2002-03-27T09:57:57Z</time>
      </trkpt>
      <trkpt lat="44.70251" lon="4.07544">
        <ele>1304.65</ele>
        <time>2002-03-27T09:58:12Z</time>
      </trkpt>
      <trkpt lat="44.70262" lon="4.07569">
        <ele>1304.65</ele>
        <time>2002-03-27T09:58:27Z</time>
      </trkpt>
      <trkpt lat="44.70274" lon="4.07595">
        <ele>1304.65</ele>
        <time>2002-03-27T09:58:43Z</time>
      </trkpt>
      <trkpt lat="44.70277" lon="4.07599">
        <ele>1306.09</ele>
        <time>2002-03-27T09:58:46Z</time>
      </trkpt>
      <trkpt lat="44.70283" lon="4.07613">
        <ele>1306.57</ele>
        <time>2002-03-27T09:58:54Z</time>
      </trkpt>
      <trkpt lat="44.70294" lon="4.07636">
        <ele>1306.57</ele>
        <time>2002-03-27T09:59:08Z</time>
      </trkpt>
      <trkpt lat="44.70308" lon="4.07661">
        <ele>1307.53</ele>
        <time>2002-03-27T09:59:24Z</time>
      </trkpt>
      <trkpt lat="44.70319" lon="4.07682">
        <ele>1308.49</ele>
        <time>2002-03-27T09:59:38Z</time>
      </trkpt>
      <trkpt lat="44.70329" lon="4.07697">
        <ele>1308.49</ele>
        <time>2002-03-27T09:59:49Z</time>
      </trkpt>
      <trkpt lat="44.70331" lon="4.07708">
        <ele>1309.93</ele>
        <time>2002-03-27T09:59:55Z</time>
      </trkpt>
      <trkpt lat="44.7034" lon="4.07728">
        <ele>1310.41</ele>
        <time>2002-03-27T10:00:08Z</time>
      </trkpt>
      <trkpt lat="44.70352" lon="4.07752">
        <ele>1309.93</ele>
        <time>2002-03-27T10:00:22Z</time>
      </trkpt>
      <trkpt lat="44.70358" lon="4.07763">
        <ele>1309.45</ele>
        <time>2002-03-27T10:00:30Z</time>
      </trkpt>
      <trkpt lat="44.70366" lon="4.07785">
        <ele>1307.05</ele>
        <time>2002-03-27T10:00:46Z</time>
      </trkpt>
      <trkpt lat="44.70378" lon="4.07805">
        <ele>1305.13</ele>
        <time>2002-03-27T10:01:00Z</time>
      </trkpt>
      <trkpt lat="44.70392" lon="4.07823">
        <ele>1302.24</ele>
        <time>2002-03-27T10:01:14Z</time>
      </trkpt>
      <trkpt lat="44.70403" lon="4.07841">
        <ele>1301.28</ele>
        <time>2002-03-27T10:01:26Z</time>
      </trkpt>
      <trkpt lat="44.70413" lon="4.07852">
        <ele>1300.8</ele>
        <time>2002-03-27T10:01:44Z</time>
      </trkpt>
      <trkpt lat="44.70419" lon="4.0786">
        <ele>1300.8</ele>
        <time>2002-03-27T10:01:51Z</time>
      </trkpt>
      <trkpt lat="44.70428" lon="4.07873">
        <ele>1297.92</ele>
        <time>2002-03-27T10:02:01Z</time>
      </trkpt>
      <trkpt lat="44.70435" lon="4.07882">
        <ele>1295.99</ele>
        <time>2002-03-27T10:02:11Z</time>
      </trkpt>
      <trkpt lat="44.70437" lon="4.07898">
        <ele>1295.51</ele>
        <time>2002-03-27T10:02:29Z</time>
      </trkpt>
      <trkpt lat="44.70448" lon="4.07908">
        <ele>1292.63</ele>
        <time>2002-03-27T10:02:44Z</time>
      </trkpt>
      <trkpt lat="44.70455" lon="4.07924">
        <ele>1289.75</ele>
        <time>2002-03-27T10:03:00Z</time>
      </trkpt>
      <trkpt lat="44.70473" lon="4.07941">
        <ele>1285.9</ele>
        <time>2002-03-27T10:03:20Z</time>
      </trkpt>
      <trkpt lat="44.70504" lon="4.07957">
        <ele>1282.54</ele>
        <time>2002-03-27T10:03:53Z</time>
      </trkpt>
      <trkpt lat="44.70522" lon="4.07963">
        <ele>1281.09</ele>
        <time>2002-03-27T10:04:07Z</time>
      </trkpt>
      <trkpt lat="44.70545" lon="4.07976">
        <ele>1279.65</ele>
        <time>2002-03-27T10:04:23Z</time>
      </trkpt>
      <trkpt lat="44.70573" lon="4.07987">
        <ele>1277.25</ele>
        <time>2002-03-27T10:04:46Z</time>
      </trkpt>
      <trkpt lat="44.70589" lon="4.08002">
        <ele>1275.81</ele>
        <time>2002-03-27T10:05:00Z</time>
      </trkpt>
      <trkpt lat="44.7061" lon="4.08022">
        <ele>1275.81</ele>
        <time>2002-03-27T10:05:16Z</time>
      </trkpt>
      <trkpt lat="44.70624" lon="4.08038">
        <ele>1275.33</ele>
        <time>2002-03-27T10:05:29Z</time>
      </trkpt>
      <trkpt lat="44.70632" lon="4.08054">
        <ele>1275.33</ele>
        <time>2002-03-27T10:05:39Z</time>
      </trkpt>
      <trkpt lat="44.70644" lon="4.08067">
        <ele>1273.88</ele>
        <time>2002-03-27T10:05:49Z</time>
      </trkpt>
      <trkpt lat="44.70653" lon="4.08085">
        <ele>1271</ele>
        <time>2002-03-27T10:06:01Z</time>
      </trkpt>
      <trkpt lat="44.70659" lon="4.08102">
        <ele>1269.08</ele>
        <time>2002-03-27T10:06:12Z</time>
      </trkpt>
      <trkpt lat="44.70661" lon="4.08107">
        <ele>1268.6</ele>
        <time>2002-03-27T10:06:14Z</time>
      </trkpt>
      <trkpt lat="44.70664" lon="4.08126">
        <ele>1267.64</ele>
        <time>2002-03-27T10:06:22Z</time>
      </trkpt>
      <trkpt lat="44.70669" lon="4.08148">
        <ele>1266.19</ele>
        <time>2002-03-27T10:06:31Z</time>
      </trkpt>
      <trkpt lat="44.70675" lon="4.08171">
        <ele>1265.71</ele>
        <time>2002-03-27T10:06:43Z</time>
      </trkpt>
      <trkpt lat="44.70674" lon="4.082">
        <ele>1264.75</ele>
        <time>2002-03-27T10:06:55Z</time>
      </trkpt>
      <trkpt lat="44.70677" lon="4.08228">
        <ele>1263.79</ele>
        <time>2002-03-27T10:07:10Z</time>
      </trkpt>
      <trkpt lat="44.70685" lon="4.08251">
        <ele>1264.75</ele>
        <time>2002-03-27T10:07:23Z</time>
      </trkpt>
      <trkpt lat="44.70686" lon="4.08254">
        <ele>1264.75</ele>
        <time>2002-03-27T10:07:42Z</time>
      </trkpt>
      <trkpt lat="44.70686" lon="4.08255">
        <ele>1265.23</ele>
        <time>2002-03-27T10:08:36Z</time>
      </trkpt>
      <trkpt lat="44.70686" lon="4.08255">
        <ele>1265.71</ele>
        <time>2002-03-27T10:09:27Z</time>
      </trkpt>
      <trkpt lat="44.70687" lon="4.08263">
        <ele>1265.71</ele>
        <time>2002-03-27T10:09:35Z</time>
      </trkpt>
      <trkpt lat="44.70689" lon="4.08262">
        <ele>1265.71</ele>
        <time>2002-03-27T10:09:39Z</time>
      </trkpt>
      <trkpt lat="44.70694" lon="4.0827">
        <ele>1265.71</ele>
        <time>2002-03-27T10:09:44Z</time>
      </trkpt>
      <trkpt lat="44.70705" lon="4.08285">
        <ele>1266.67</ele>
        <time>2002-03-27T10:09:57Z</time>
      </trkpt>
      <trkpt lat="44.70716" lon="4.08303">
        <ele>1267.16</ele>
        <time>2002-03-27T10:10:10Z</time>
      </trkpt>
      <trkpt lat="44.70727" lon="4.08313">
        <ele>1266.67</ele>
        <time>2002-03-27T10:10:21Z</time>
      </trkpt>
      <trkpt lat="44.7074" lon="4.08336">
        <ele>1266.19</ele>
        <time>2002-03-27T10:10:36Z</time>
      </trkpt>
      <trkpt lat="44.70747" lon="4.08345">
        <ele>1266.19</ele>
        <time>2002-03-27T10:10:43Z</time>
      </trkpt>
      <trkpt lat="44.7076" lon="4.08375">
        <ele>1266.67</ele>
        <time>2002-03-27T10:11:00Z</time>
      </trkpt>
      <trkpt lat="44.70773" lon="4.08402">
        <ele>1267.64</ele>
        <time>2002-03-27T10:11:18Z</time>
      </trkpt>
      <trkpt lat="44.70775" lon="4.08407">
        <ele>1268.12</ele>
        <time>2002-03-27T10:11:21Z</time>
      </trkpt>
      <trkpt lat="44.70777" lon="4.08413">
        <ele>1269.08</ele>
        <time>2002-03-27T10:11:39Z</time>
      </trkpt>
      <trkpt lat="44.70777" lon="4.08417">
        <ele>1269.56</ele>
        <time>2002-03-27T10:12:57Z</time>
      </trkpt>
      <trkpt lat="44.70777" lon="4.08427">
        <ele>1270.04</ele>
        <time>2002-03-27T10:13:02Z</time>
      </trkpt>
      <trkpt lat="44.70775" lon="4.08443">
        <ele>1270.04</ele>
        <time>2002-03-27T10:13:10Z</time>
      </trkpt>
      <trkpt lat="44.70771" lon="4.08476">
        <ele>1270.04</ele>
        <time>2002-03-27T10:13:27Z</time>
      </trkpt>
      <trkpt lat="44.70766" lon="4.08511">
        <ele>1271</ele>
        <time>2002-03-27T10:13:44Z</time>
      </trkpt>
      <trkpt lat="44.70763" lon="4.08527">
        <ele>1271</ele>
        <time>2002-03-27T10:13:52Z</time>
      </trkpt>
      <trkpt lat="44.70762" lon="4.08535">
        <ele>1271.96</ele>
        <time>2002-03-27T10:13:56Z</time>
      </trkpt>
      <trkpt lat="44.70762" lon="4.08562">
        <ele>1272.92</ele>
        <time>2002-03-27T10:14:09Z</time>
      </trkpt>
      <trkpt lat="44.70762" lon="4.08569">
        <ele>1272.44</ele>
        <time>2002-03-27T10:14:13Z</time>
      </trkpt>
      <trkpt lat="44.70765" lon="4.08592">
        <ele>1272.92</ele>
        <time>2002-03-27T10:14:25Z</time>
      </trkpt>
      <trkpt lat="44.70766" lon="4.08601">
        <ele>1272.44</ele>
        <time>2002-03-27T10:14:30Z</time>
      </trkpt>
      <trkpt lat="44.70773" lon="4.08632">
        <ele>1271.48</ele>
        <time>2002-03-27T10:14:45Z</time>
      </trkpt>
      <trkpt lat="44.7078" lon="4.08663">
        <ele>1270.04</ele>
        <time>2002-03-27T10:15:00Z</time>
      </trkpt>
      <trkpt lat="44.70788" lon="4.08697">
        <ele>1269.56</ele>
        <time>2002-03-27T10:15:18Z</time>
      </trkpt>
      <trkpt lat="44.70795" lon="4.08727">
        <ele>1270.52</ele>
        <time>2002-03-27T10:15:34Z</time>
      </trkpt>
      <trkpt lat="44.70798" lon="4.08734">
        <ele>1270.52</ele>
        <time>2002-03-27T10:15:38Z</time>
      </trkpt>
      <trkpt lat="44.70805" lon="4.08754">
        <ele>1270.04</ele>
        <time>2002-03-27T10:15:52Z</time>
      </trkpt>
      <trkpt lat="44.70809" lon="4.08769">
        <ele>1271</ele>
        <time>2002-03-27T10:16:00Z</time>
      </trkpt>
      <trkpt lat="44.70814" lon="4.08785">
        <ele>1271.48</ele>
        <time>2002-03-27T10:16:09Z</time>
      </trkpt>
      <trkpt lat="44.70828" lon="4.08811">
        <ele>1272.92</ele>
        <time>2002-03-27T10:16:25Z</time>
      </trkpt>
      <trkpt lat="44.70838" lon="4.08827">
        <ele>1272.44</ele>
        <time>2002-03-27T10:16:36Z</time>
      </trkpt>
      <trkpt lat="44.70851" lon="4.08851">
        <ele>1271.96</ele>
        <time>2002-03-27T10:16:51Z</time>
      </trkpt>
      <trkpt lat="44.70857" lon="4.08867">
        <ele>1271</ele>
        <time>2002-03-27T10:17:03Z</time>
      </trkpt>
      <trkpt lat="44.70858" lon="4.08871">
        <ele>1271.48</ele>
        <time>2002-03-27T10:17:05Z</time>
      </trkpt>
      <trkpt lat="44.70864" lon="4.0889">
        <ele>1271.48</ele>
        <time>2002-03-27T10:17:17Z</time>
      </trkpt>
      <trkpt lat="44.70872" lon="4.08917">
        <ele>1271</ele>
        <time>2002-03-27T10:17:31Z</time>
      </trkpt>
      <trkpt lat="44.70877" lon="4.08934">
        <ele>1271.48</ele>
        <time>2002-03-27T10:17:40Z</time>
      </trkpt>
      <trkpt lat="44.70883" lon="4.08944">
        <ele>1271.96</ele>
        <time>2002-03-27T10:17:47Z</time>
      </trkpt>
      <trkpt lat="44.70892" lon="4.08964">
        <ele>1272.44</ele>
        <time>2002-03-27T10:17:58Z</time>
      </trkpt>
      <trkpt lat="44.70898" lon="4.08988">
        <ele>1271.96</ele>
        <time>2002-03-27T10:18:10Z</time>
      </trkpt>
      <trkpt lat="44.709" lon="4.09004">
        <ele>1271.48</ele>
        <time>2002-03-27T10:18:16Z</time>
      </trkpt>
      <trkpt lat="44.709" lon="4.09024">
        <ele>1271</ele>
        <time>2002-03-27T10:18:24Z</time>
      </trkpt>
      <trkpt lat="44.70898" lon="4.09036">
        <ele>1272.44</ele>
        <time>2002-03-27T10:18:30Z</time>
      </trkpt>
      <trkpt lat="44.70888" lon="4.09063">
        <ele>1272.92</ele>
        <time>2002-03-27T10:18:44Z</time>
      </trkpt>
      <trkpt lat="44.7088" lon="4.09084">
        <ele>1274.36</ele>
        <time>2002-03-27T10:18:56Z</time>
      </trkpt>
      <trkpt lat="44.70877" lon="4.09092">
        <ele>1274.36</ele>
        <time>2002-03-27T10:19:01Z</time>
      </trkpt>
      <trkpt lat="44.7087" lon="4.09111">
        <ele>1275.33</ele>
        <time>2002-03-27T10:19:12Z</time>
      </trkpt>
      <trkpt lat="44.70863" lon="4.09127">
        <ele>1275.81</ele>
        <time>2002-03-27T10:19:26Z</time>
      </trkpt>
      <trkpt lat="44.70855" lon="4.09145">
        <ele>1276.29</ele>
        <time>2002-03-27T10:19:45Z</time>
      </trkpt>
      <trkpt lat="44.70847" lon="4.09168">
        <ele>1277.73</ele>
        <time>2002-03-27T10:20:00Z</time>
      </trkpt>
      <trkpt lat="44.70839" lon="4.09193">
        <ele>1279.17</ele>
        <time>2002-03-27T10:20:15Z</time>
      </trkpt>
      <trkpt lat="44.70834" lon="4.09209">
        <ele>1280.13</ele>
        <time>2002-03-27T10:20:26Z</time>
      </trkpt>
      <trkpt lat="44.70828" lon="4.09235">
        <ele>1281.09</ele>
        <time>2002-03-27T10:20:41Z</time>
      </trkpt>
      <trkpt lat="44.70823" lon="4.09261">
        <ele>1283.02</ele>
        <time>2002-03-27T10:20:55Z</time>
      </trkpt>
      <trkpt lat="44.7082" lon="4.09292">
        <ele>1283.98</ele>
        <time>2002-03-27T10:21:12Z</time>
      </trkpt>
      <trkpt lat="44.70819" lon="4.09302">
        <ele>1284.94</ele>
        <time>2002-03-27T10:21:17Z</time>
      </trkpt>
      <trkpt lat="44.70819" lon="4.0933">
        <ele>1286.38</ele>
        <time>2002-03-27T10:21:32Z</time>
      </trkpt>
      <trkpt lat="44.70823" lon="4.09362">
        <ele>1287.34</ele>
        <time>2002-03-27T10:21:49Z</time>
      </trkpt>
      <trkpt lat="44.70829" lon="4.09397">
        <ele>1289.27</ele>
        <time>2002-03-27T10:22:08Z</time>
      </trkpt>
      <trkpt lat="44.70833" lon="4.09426">
        <ele>1290.23</ele>
        <time>2002-03-27T10:22:24Z</time>
      </trkpt>
      <trkpt lat="44.7084" lon="4.09462">
        <ele>1291.67</ele>
        <time>2002-03-27T10:22:43Z</time>
      </trkpt>
      <trkpt lat="44.7085" lon="4.09496">
        <ele>1292.63</ele>
        <time>2002-03-27T10:23:01Z</time>
      </trkpt>
      <trkpt lat="44.70861" lon="4.09525">
        <ele>1293.59</ele>
        <time>2002-03-27T10:23:18Z</time>
      </trkpt>
      <trkpt lat="44.70872" lon="4.09559">
        <ele>1294.55</ele>
        <time>2002-03-27T10:23:37Z</time>
      </trkpt>
      <trkpt lat="44.70872" lon="4.0956">
        <ele>1295.03</ele>
        <time>2002-03-27T10:23:38Z</time>
      </trkpt>
      <trkpt lat="44.7088" lon="4.09593">
        <ele>1296.48</ele>
        <time>2002-03-27T10:23:56Z</time>
      </trkpt>
      <trkpt lat="44.70889" lon="4.09625">
        <ele>1297.92</ele>
        <time>2002-03-27T10:24:14Z</time>
      </trkpt>
      <trkpt lat="44.70896" lon="4.09652">
        <ele>1298.88</ele>
        <time>2002-03-27T10:24:29Z</time>
      </trkpt>
      <trkpt lat="44.70903" lon="4.09684">
        <ele>1300.32</ele>
        <time>2002-03-27T10:24:46Z</time>
      </trkpt>
      <trkpt lat="44.70907" lon="4.09712">
        <ele>1302.24</ele>
        <time>2002-03-27T10:25:01Z</time>
      </trkpt>
      <trkpt lat="44.7091" lon="4.09745">
        <ele>1302.24</ele>
        <time>2002-03-27T10:25:18Z</time>
      </trkpt>
      <trkpt lat="44.70911" lon="4.09778">
        <ele>1303.69</ele>
        <time>2002-03-27T10:25:35Z</time>
      </trkpt>
      <trkpt lat="44.70911" lon="4.09813">
        <ele>1304.65</ele>
        <time>2002-03-27T10:25:53Z</time>
      </trkpt>
      <trkpt lat="44.70918" lon="4.09851">
        <ele>1304.65</ele>
        <time>2002-03-27T10:26:13Z</time>
      </trkpt>
      <trkpt lat="44.70932" lon="4.0988">
        <ele>1305.13</ele>
        <time>2002-03-27T10:26:30Z</time>
      </trkpt>
      <trkpt lat="44.7096" lon="4.09898">
        <ele>1304.65</ele>
        <time>2002-03-27T10:26:50Z</time>
      </trkpt>
      <trkpt lat="44.70983" lon="4.09909">
        <ele>1304.65</ele>
        <time>2002-03-27T10:27:06Z</time>
      </trkpt>
      <trkpt lat="44.71008" lon="4.0992">
        <ele>1304.65</ele>
        <time>2002-03-27T10:27:23Z</time>
      </trkpt>
      <trkpt lat="44.71035" lon="4.09931">
        <ele>1304.17</ele>
        <time>2002-03-27T10:27:41Z</time>
      </trkpt>
      <trkpt lat="44.7106" lon="4.09943">
        <ele>1303.69</ele>
        <time>2002-03-27T10:27:59Z</time>
      </trkpt>
      <trkpt lat="44.71084" lon="4.0996">
        <ele>1303.69</ele>
        <time>2002-03-27T10:28:17Z</time>
      </trkpt>
      <trkpt lat="44.71106" lon="4.09979">
        <ele>1302.24</ele>
        <time>2002-03-27T10:28:35Z</time>
      </trkpt>
      <trkpt lat="44.71129" lon="4.1">
        <ele>1302.24</ele>
        <time>2002-03-27T10:28:53Z</time>
      </trkpt>
      <trkpt lat="44.71153" lon="4.10026">
        <ele>1300.8</ele>
        <time>2002-03-27T10:29:13Z</time>
      </trkpt>
      <trkpt lat="44.71175" lon="4.10048">
        <ele>1299.84</ele>
        <time>2002-03-27T10:29:31Z</time>
      </trkpt>
      <trkpt lat="44.71187" lon="4.1006">
        <ele>1299.36</ele>
        <time>2002-03-27T10:29:49Z</time>
      </trkpt>
      <trkpt lat="44.71187" lon="4.10061">
        <ele>1299.84</ele>
        <time>2002-03-27T10:30:51Z</time>
      </trkpt>
      <trkpt lat="44.71185" lon="4.10063">
        <ele>1299.36</ele>
        <time>2002-03-27T10:31:04Z</time>
      </trkpt>
      <trkpt lat="44.71183" lon="4.10066">
        <ele>1299.36</ele>
        <time>2002-03-27T10:31:19Z</time>
      </trkpt>
      <trkpt lat="44.71183" lon="4.10067">
        <ele>1299.36</ele>
        <time>2002-03-27T10:32:50Z</time>
      </trkpt>
      <trkpt lat="44.71183" lon="4.10067">
        <ele>1299.84</ele>
        <time>2002-03-27T10:34:00Z</time>
      </trkpt>
      <trkpt lat="44.71185" lon="4.10076">
        <ele>1298.88</ele>
        <time>2002-03-27T10:34:05Z</time>
      </trkpt>
      <trkpt lat="44.71189" lon="4.10088">
        <ele>1298.4</ele>
        <time>2002-03-27T10:34:19Z</time>
      </trkpt>
      <trkpt lat="44.712" lon="4.10098">
        <ele>1298.4</ele>
        <time>2002-03-27T10:34:31Z</time>
      </trkpt>
      <trkpt lat="44.71218" lon="4.10107">
        <ele>1296.96</ele>
        <time>2002-03-27T10:34:47Z</time>
      </trkpt>
      <trkpt lat="44.71218" lon="4.10107">
        <ele>1296.96</ele>
        <time>2002-03-27T10:34:48Z</time>
      </trkpt>
      <trkpt lat="44.71227" lon="4.10113">
        <ele>1296.48</ele>
        <time>2002-03-27T10:35:00Z</time>
      </trkpt>
      <trkpt lat="44.71228" lon="4.10118">
        <ele>1295.51</ele>
        <time>2002-03-27T10:35:17Z</time>
      </trkpt>
      <trkpt lat="44.71233" lon="4.10122">
        <ele>1295.03</ele>
        <time>2002-03-27T10:35:39Z</time>
      </trkpt>
      <trkpt lat="44.71233" lon="4.10122">
        <ele>1295.03</ele>
        <time>2002-03-27T10:36:07Z</time>
      </trkpt>
      <trkpt lat="44.71234" lon="4.10122">
        <ele>1295.99</ele>
        <time>2002-03-27T10:37:14Z</time>
      </trkpt>
      <trkpt lat="44.71234" lon="4.10122">
        <ele>1296.48</ele>
        <time>2002-03-27T10:37:53Z</time>
      </trkpt>
      <trkpt lat="44.71234" lon="4.10122">
        <ele>1296.48</ele>
        <time>2002-03-27T10:37:54Z</time>
      </trkpt>
      <trkpt lat="44.71235" lon="4.10124">
        <ele>1296.48</ele>
        <time>2002-03-27T10:37:56Z</time>
      </trkpt>
      <trkpt lat="44.71253" lon="4.10133">
        <ele>1294.55</ele>
        <time>2002-03-27T10:38:11Z</time>
      </trkpt>
      <trkpt lat="44.71275" lon="4.10147">
        <ele>1293.59</ele>
        <time>2002-03-27T10:38:28Z</time>
      </trkpt>
      <trkpt lat="44.71293" lon="4.10163">
        <ele>1292.63</ele>
        <time>2002-03-27T10:38:43Z</time>
      </trkpt>
      <trkpt lat="44.71313" lon="4.10184">
        <ele>1290.71</ele>
        <time>2002-03-27T10:39:00Z</time>
      </trkpt>
      <trkpt lat="44.71331" lon="4.10209">
        <ele>1288.78</ele>
        <time>2002-03-27T10:39:18Z</time>
      </trkpt>
      <trkpt lat="44.71347" lon="4.10233">
        <ele>1286.86</ele>
        <time>2002-03-27T10:39:35Z</time>
      </trkpt>
      <trkpt lat="44.71364" lon="4.10253">
        <ele>1286.38</ele>
        <time>2002-03-27T10:39:50Z</time>
      </trkpt>
      <trkpt lat="44.71381" lon="4.10269">
        <ele>1285.9</ele>
        <time>2002-03-27T10:40:05Z</time>
      </trkpt>
      <trkpt lat="44.71389" lon="4.10272">
        <ele>1285.9</ele>
        <time>2002-03-27T10:40:15Z</time>
      </trkpt>
      <trkpt lat="44.71393" lon="4.10273">
        <ele>1285.9</ele>
        <time>2002-03-27T10:40:36Z</time>
      </trkpt>
      <trkpt lat="44.71395" lon="4.10273">
        <ele>1286.38</ele>
        <time>2002-03-27T10:40:52Z</time>
      </trkpt>
      <trkpt lat="44.71404" lon="4.10286">
        <ele>1286.38</ele>
        <time>2002-03-27T10:41:02Z</time>
      </trkpt>
      <trkpt lat="44.71416" lon="4.10314">
        <ele>1288.78</ele>
        <time>2002-03-27T10:41:20Z</time>
      </trkpt>
      <trkpt lat="44.71424" lon="4.10334">
        <ele>1289.27</ele>
        <time>2002-03-27T10:41:33Z</time>
      </trkpt>
      <trkpt lat="44.71426" lon="4.10344">
        <ele>1290.23</ele>
        <time>2002-03-27T10:41:39Z</time>
      </trkpt>
      <trkpt lat="44.71429" lon="4.10354">
        <ele>1291.19</ele>
        <time>2002-03-27T10:41:45Z</time>
      </trkpt>
      <trkpt lat="44.7143" lon="4.10357">
        <ele>1291.67</ele>
        <time>2002-03-27T10:41:47Z</time>
      </trkpt>
      <trkpt lat="44.71439" lon="4.10376">
        <ele>1293.11</ele>
        <time>2002-03-27T10:42:01Z</time>
      </trkpt>
      <trkpt lat="44.71447" lon="4.10394">
        <ele>1295.51</ele>
        <time>2002-03-27T10:42:14Z</time>
      </trkpt>
      <trkpt lat="44.7145" lon="4.10401">
        <ele>1295.51</ele>
        <time>2002-03-27T10:42:24Z</time>
      </trkpt>
      <trkpt lat="44.7145" lon="4.10402">
        <ele>1295.99</ele>
        <time>2002-03-27T10:42:40Z</time>
      </trkpt>
      <trkpt lat="44.71453" lon="4.10409">
        <ele>1296.48</ele>
        <time>2002-03-27T10:42:44Z</time>
      </trkpt>
      <trkpt lat="44.71462" lon="4.10432">
        <ele>1297.44</ele>
        <time>2002-03-27T10:42:59Z</time>
      </trkpt>
      <trkpt lat="44.71467" lon="4.10448">
        <ele>1298.4</ele>
        <time>2002-03-27T10:43:09Z</time>
      </trkpt>
      <trkpt lat="44.71469" lon="4.10454">
        <ele>1298.88</ele>
        <time>2002-03-27T10:43:13Z</time>
      </trkpt>
      <trkpt lat="44.71475" lon="4.10472">
        <ele>1299.36</ele>
        <time>2002-03-27T10:43:23Z</time>
      </trkpt>
      <trkpt lat="44.71486" lon="4.10502">
        <ele>1300.32</ele>
        <time>2002-03-27T10:43:40Z</time>
      </trkpt>
      <trkpt lat="44.71496" lon="4.1053">
        <ele>1299.36</ele>
        <time>2002-03-27T10:43:56Z</time>
      </trkpt>
      <trkpt lat="44.71504" lon="4.10566">
        <ele>1297.44</ele>
        <time>2002-03-27T10:44:14Z</time>
      </trkpt>
      <trkpt lat="44.71509" lon="4.10598">
        <ele>1296.48</ele>
        <time>2002-03-27T10:44:30Z</time>
      </trkpt>
      <trkpt lat="44.71511" lon="4.10613">
        <ele>1295.03</ele>
        <time>2002-03-27T10:44:37Z</time>
      </trkpt>
      <trkpt lat="44.71512" lon="4.10625">
        <ele>1294.55</ele>
        <time>2002-03-27T10:44:43Z</time>
      </trkpt>
      <trkpt lat="44.71513" lon="4.10629">
        <ele>1293.59</ele>
        <time>2002-03-27T10:44:45Z</time>
      </trkpt>
      <trkpt lat="44.71517" lon="4.10648">
        <ele>1292.63</ele>
        <time>2002-03-27T10:44:55Z</time>
      </trkpt>
      <trkpt lat="44.71521" lon="4.10687">
        <ele>1288.3</ele>
        <time>2002-03-27T10:45:13Z</time>
      </trkpt>
      <trkpt lat="44.71526" lon="4.10724">
        <ele>1285.9</ele>
        <time>2002-03-27T10:45:31Z</time>
      </trkpt>
      <trkpt lat="44.71528" lon="4.10765">
        <ele>1282.54</ele>
        <time>2002-03-27T10:45:49Z</time>
      </trkpt>
      <trkpt lat="44.71533" lon="4.10796">
        <ele>1281.09</ele>
        <time>2002-03-27T10:46:04Z</time>
      </trkpt>
      <trkpt lat="44.7154" lon="4.10828">
        <ele>1278.21</ele>
        <time>2002-03-27T10:46:20Z</time>
      </trkpt>
      <trkpt lat="44.71546" lon="4.1086">
        <ele>1275.33</ele>
        <time>2002-03-27T10:46:36Z</time>
      </trkpt>
      <trkpt lat="44.71554" lon="4.10896">
        <ele>1272.92</ele>
        <time>2002-03-27T10:46:54Z</time>
      </trkpt>
      <trkpt lat="44.71566" lon="4.10917">
        <ele>1271</ele>
        <time>2002-03-27T10:47:08Z</time>
      </trkpt>
      <trkpt lat="44.71567" lon="4.10918">
        <ele>1271</ele>
        <time>2002-03-27T10:47:15Z</time>
      </trkpt>
      <trkpt lat="44.71571" lon="4.10929">
        <ele>1269.08</ele>
        <time>2002-03-27T10:47:22Z</time>
      </trkpt>
      <trkpt lat="44.71564" lon="4.10941">
        <ele>1269.08</ele>
        <time>2002-03-27T10:47:30Z</time>
      </trkpt>
      <trkpt lat="44.71556" lon="4.10945">
        <ele>1269.08</ele>
        <time>2002-03-27T10:47:36Z</time>
      </trkpt>
      <trkpt lat="44.71537" lon="4.1096">
        <ele>1268.12</ele>
        <time>2002-03-27T10:47:52Z</time>
      </trkpt>
      <trkpt lat="44.71536" lon="4.10977">
        <ele>1266.19</ele>
        <time>2002-03-27T10:48:01Z</time>
      </trkpt>
      <trkpt lat="44.71542" lon="4.11004">
        <ele>1263.31</ele>
        <time>2002-03-27T10:48:17Z</time>
      </trkpt>
      <trkpt lat="44.71551" lon="4.11016">
        <ele>1261.39</ele>
        <time>2002-03-27T10:48:28Z</time>
      </trkpt>
      <trkpt lat="44.71551" lon="4.11024">
        <ele>1260.91</ele>
        <time>2002-03-27T10:48:42Z</time>
      </trkpt>
      <trkpt lat="44.71549" lon="4.1103">
        <ele>1260.43</ele>
        <time>2002-03-27T10:49:07Z</time>
      </trkpt>
      <trkpt lat="44.71552" lon="4.11029">
        <ele>1260.91</ele>
        <time>2002-03-27T10:49:18Z</time>
      </trkpt>
      <trkpt lat="44.71562" lon="4.11024">
        <ele>1260.91</ele>
        <time>2002-03-27T10:49:26Z</time>
      </trkpt>
      <trkpt lat="44.71571" lon="4.11019">
        <ele>1261.87</ele>
        <time>2002-03-27T10:49:36Z</time>
      </trkpt>
      <trkpt lat="44.71574" lon="4.11018">
        <ele>1261.39</ele>
        <time>2002-03-27T10:49:38Z</time>
      </trkpt>
      <trkpt lat="44.71581" lon="4.11019">
        <ele>1260.91</ele>
        <time>2002-03-27T10:49:44Z</time>
      </trkpt>
      <trkpt lat="44.71586" lon="4.11026">
        <ele>1260.43</ele>
        <time>2002-03-27T10:49:49Z</time>
      </trkpt>
      <trkpt lat="44.71587" lon="4.11031">
        <ele>1260.43</ele>
        <time>2002-03-27T10:49:55Z</time>
      </trkpt>
      <trkpt lat="44.71594" lon="4.11051">
        <ele>1258.98</ele>
        <time>2002-03-27T10:50:08Z</time>
      </trkpt>
      <trkpt lat="44.71594" lon="4.11053">
        <ele>1259.46</ele>
        <time>2002-03-27T10:50:31Z</time>
      </trkpt>
      <trkpt lat="44.71606" lon="4.11085">
        <ele>1256.58</ele>
        <time>2002-03-27T10:50:47Z</time>
      </trkpt>
      <trkpt lat="44.71621" lon="4.1111">
        <ele>1254.66</ele>
        <time>2002-03-27T10:51:02Z</time>
      </trkpt>
      <trkpt lat="44.71622" lon="4.11112">
        <ele>1254.66</ele>
        <time>2002-03-27T10:51:03Z</time>
      </trkpt>
      <trkpt lat="44.71629" lon="4.11125">
        <ele>1254.18</ele>
        <time>2002-03-27T10:51:11Z</time>
      </trkpt>
      <trkpt lat="44.71645" lon="4.11154">
        <ele>1252.25</ele>
        <time>2002-03-27T10:51:27Z</time>
      </trkpt>
      <trkpt lat="44.71655" lon="4.11178">
        <ele>1251.29</ele>
        <time>2002-03-27T10:51:40Z</time>
      </trkpt>
      <trkpt lat="44.71662" lon="4.11207">
        <ele>1249.85</ele>
        <time>2002-03-27T10:51:55Z</time>
      </trkpt>
      <trkpt lat="44.71662" lon="4.11214">
        <ele>1248.89</ele>
        <time>2002-03-27T10:51:59Z</time>
      </trkpt>
      <trkpt lat="44.71668" lon="4.11231">
        <ele>1246.97</ele>
        <time>2002-03-27T10:52:09Z</time>
      </trkpt>
      <trkpt lat="44.71673" lon="4.11238">
        <ele>1246.49</ele>
        <time>2002-03-27T10:52:14Z</time>
      </trkpt>
      <trkpt lat="44.71686" lon="4.11266">
        <ele>1244.56</ele>
        <time>2002-03-27T10:52:30Z</time>
      </trkpt>
      <trkpt lat="44.71696" lon="4.11293">
        <ele>1242.16</ele>
        <time>2002-03-27T10:52:45Z</time>
      </trkpt>
      <trkpt lat="44.71708" lon="4.11317">
        <ele>1239.76</ele>
        <time>2002-03-27T10:53:00Z</time>
      </trkpt>
      <trkpt lat="44.71718" lon="4.11335">
        <ele>1237.83</ele>
        <time>2002-03-27T10:53:11Z</time>
      </trkpt>
      <trkpt lat="44.71725" lon="4.11349">
        <ele>1235.43</ele>
        <time>2002-03-27T10:53:20Z</time>
      </trkpt>
      <trkpt lat="44.71732" lon="4.11366">
        <ele>1232.55</ele>
        <time>2002-03-27T10:53:33Z</time>
      </trkpt>
      <trkpt lat="44.71738" lon="4.11376">
        <ele>1230.62</ele>
        <time>2002-03-27T10:53:45Z</time>
      </trkpt>
      <trkpt lat="44.71743" lon="4.11388">
        <ele>1228.22</ele>
        <time>2002-03-27T10:53:57Z</time>
      </trkpt>
      <trkpt lat="44.71753" lon="4.114">
        <ele>1225.34</ele>
        <time>2002-03-27T10:54:10Z</time>
      </trkpt>
      <trkpt lat="44.71761" lon="4.11409">
        <ele>1223.42</ele>
        <time>2002-03-27T10:54:23Z</time>
      </trkpt>
      <trkpt lat="44.7177" lon="4.11418">
        <ele>1220.53</ele>
        <time>2002-03-27T10:54:35Z</time>
      </trkpt>
      <trkpt lat="44.7178" lon="4.11425">
        <ele>1218.13</ele>
        <time>2002-03-27T10:54:46Z</time>
      </trkpt>
      <trkpt lat="44.71792" lon="4.1143">
        <ele>1216.21</ele>
        <time>2002-03-27T10:54:57Z</time>
      </trkpt>
      <trkpt lat="44.71806" lon="4.11435">
        <ele>1212.84</ele>
        <time>2002-03-27T10:55:16Z</time>
      </trkpt>
      <trkpt lat="44.7183" lon="4.11444">
        <ele>1210.44</ele>
        <time>2002-03-27T10:55:31Z</time>
      </trkpt>
      <trkpt lat="44.71842" lon="4.11455">
        <ele>1209.48</ele>
        <time>2002-03-27T10:55:43Z</time>
      </trkpt>
      <trkpt lat="44.71845" lon="4.11469">
        <ele>1207.55</ele>
        <time>2002-03-27T10:55:53Z</time>
      </trkpt>
      <trkpt lat="44.71846" lon="4.11485">
        <ele>1204.67</ele>
        <time>2002-03-27T10:56:09Z</time>
      </trkpt>
      <trkpt lat="44.71855" lon="4.11516">
        <ele>1201.3</ele>
        <time>2002-03-27T10:56:45Z</time>
      </trkpt>
      <trkpt lat="44.7187" lon="4.11519">
        <ele>1200.82</ele>
        <time>2002-03-27T10:57:02Z</time>
      </trkpt>
      <trkpt lat="44.71888" lon="4.11505">
        <ele>1203.71</ele>
        <time>2002-03-27T10:57:24Z</time>
      </trkpt>
      <trkpt lat="44.71896" lon="4.11497">
        <ele>1204.67</ele>
        <time>2002-03-27T10:57:36Z</time>
      </trkpt>
      <trkpt lat="44.71903" lon="4.11485">
        <ele>1206.59</ele>
        <time>2002-03-27T10:57:46Z</time>
      </trkpt>
      <trkpt lat="44.71908" lon="4.11481">
        <ele>1206.59</ele>
        <time>2002-03-27T10:57:56Z</time>
      </trkpt>
      <trkpt lat="44.7192" lon="4.11482">
        <ele>1206.59</ele>
        <time>2002-03-27T11:00:32Z</time>
      </trkpt>
      <trkpt lat="44.71922" lon="4.11482">
        <ele>1207.07</ele>
        <time>2002-03-27T11:00:34Z</time>
      </trkpt>
      <trkpt lat="44.71935" lon="4.11481">
        <ele>1209</ele>
        <time>2002-03-27T11:00:49Z</time>
      </trkpt>
      <trkpt lat="44.71946" lon="4.11481">
        <ele>1210.44</ele>
        <time>2002-03-27T11:01:00Z</time>
      </trkpt>
      <trkpt lat="44.71954" lon="4.11476">
        <ele>1212.36</ele>
        <time>2002-03-27T11:01:11Z</time>
      </trkpt>
      <trkpt lat="44.71969" lon="4.11474">
        <ele>1213.8</ele>
        <time>2002-03-27T11:01:28Z</time>
      </trkpt>
      <trkpt lat="44.71979" lon="4.11466">
        <ele>1214.76</ele>
        <time>2002-03-27T11:01:40Z</time>
      </trkpt>
      <trkpt lat="44.71989" lon="4.11459">
        <ele>1216.21</ele>
        <time>2002-03-27T11:01:53Z</time>
      </trkpt>
      <trkpt lat="44.72003" lon="4.11452">
        <ele>1217.65</ele>
        <time>2002-03-27T11:02:07Z</time>
      </trkpt>
      <trkpt lat="44.72014" lon="4.1145">
        <ele>1219.09</ele>
        <time>2002-03-27T11:02:18Z</time>
      </trkpt>
      <trkpt lat="44.72025" lon="4.11445">
        <ele>1220.05</ele>
        <time>2002-03-27T11:02:32Z</time>
      </trkpt>
      <trkpt lat="44.7203" lon="4.11442">
        <ele>1220.53</ele>
        <time>2002-03-27T11:02:35Z</time>
      </trkpt>
      <trkpt lat="44.72042" lon="4.11438">
        <ele>1221.49</ele>
        <time>2002-03-27T11:02:47Z</time>
      </trkpt>
      <trkpt lat="44.7206" lon="4.11436">
        <ele>1223.42</ele>
        <time>2002-03-27T11:03:06Z</time>
      </trkpt>
      <trkpt lat="44.7208" lon="4.11427">
        <ele>1225.34</ele>
        <time>2002-03-27T11:03:25Z</time>
      </trkpt>
      <trkpt lat="44.72083" lon="4.11426">
        <ele>1226.3</ele>
        <time>2002-03-27T11:03:28Z</time>
      </trkpt>
      <trkpt lat="44.721" lon="4.1142">
        <ele>1227.74</ele>
        <time>2002-03-27T11:03:47Z</time>
      </trkpt>
      <trkpt lat="44.72111" lon="4.11416">
        <ele>1229.18</ele>
        <time>2002-03-27T11:04:02Z</time>
      </trkpt>
      <trkpt lat="44.72117" lon="4.11411">
        <ele>1229.18</ele>
        <time>2002-03-27T11:04:07Z</time>
      </trkpt>
      <trkpt lat="44.72131" lon="4.114">
        <ele>1230.14</ele>
        <time>2002-03-27T11:04:18Z</time>
      </trkpt>
      <trkpt lat="44.72137" lon="4.11393">
        <ele>1230.62</ele>
        <time>2002-03-27T11:04:28Z</time>
      </trkpt>
      <trkpt lat="44.72152" lon="4.11389">
        <ele>1231.59</ele>
        <time>2002-03-27T11:04:48Z</time>
      </trkpt>
      <trkpt lat="44.72159" lon="4.11392">
        <ele>1231.59</ele>
        <time>2002-03-27T11:04:52Z</time>
      </trkpt>
      <trkpt lat="44.72165" lon="4.11393">
        <ele>1231.59</ele>
        <time>2002-03-27T11:04:56Z</time>
      </trkpt>
      <trkpt lat="44.72185" lon="4.11394">
        <ele>1231.11</ele>
        <time>2002-03-27T11:05:08Z</time>
      </trkpt>
      <trkpt lat="44.72191" lon="4.11397">
        <ele>1231.11</ele>
        <time>2002-03-27T11:05:13Z</time>
      </trkpt>
      <trkpt lat="44.72207" lon="4.11403">
        <ele>1231.11</ele>
        <time>2002-03-27T11:05:24Z</time>
      </trkpt>
      <trkpt lat="44.72216" lon="4.11406">
        <ele>1231.11</ele>
        <time>2002-03-27T11:05:33Z</time>
      </trkpt>
      <trkpt lat="44.72225" lon="4.11406">
        <ele>1230.62</ele>
        <time>2002-03-27T11:05:43Z</time>
      </trkpt>
      <trkpt lat="44.72237" lon="4.11409">
        <ele>1231.11</ele>
        <time>2002-03-27T11:05:54Z</time>
      </trkpt>
      <trkpt lat="44.72243" lon="4.11408">
        <ele>1230.62</ele>
        <time>2002-03-27T11:06:01Z</time>
      </trkpt>
      <trkpt lat="44.72261" lon="4.11404">
        <ele>1231.11</ele>
        <time>2002-03-27T11:06:13Z</time>
      </trkpt>
      <trkpt lat="44.72274" lon="4.11402">
        <ele>1231.11</ele>
        <time>2002-03-27T11:06:23Z</time>
      </trkpt>
      <trkpt lat="44.72287" lon="4.11403">
        <ele>1230.62</ele>
        <time>2002-03-27T11:06:33Z</time>
      </trkpt>
      <trkpt lat="44.72304" lon="4.11402">
        <ele>1231.59</ele>
        <time>2002-03-27T11:06:46Z</time>
      </trkpt>
      <trkpt lat="44.7232" lon="4.11402">
        <ele>1232.07</ele>
        <time>2002-03-27T11:06:59Z</time>
      </trkpt>
      <trkpt lat="44.72327" lon="4.11401">
        <ele>1231.59</ele>
        <time>2002-03-27T11:07:05Z</time>
      </trkpt>
      <trkpt lat="44.72343" lon="4.11401">
        <ele>1232.07</ele>
        <time>2002-03-27T11:07:15Z</time>
      </trkpt>
      <trkpt lat="44.72358" lon="4.11406">
        <ele>1231.59</ele>
        <time>2002-03-27T11:07:25Z</time>
      </trkpt>
      <trkpt lat="44.72372" lon="4.11411">
        <ele>1232.07</ele>
        <time>2002-03-27T11:07:39Z</time>
      </trkpt>
      <trkpt lat="44.72376" lon="4.11412">
        <ele>1232.07</ele>
        <time>2002-03-27T11:07:43Z</time>
      </trkpt>
      <trkpt lat="44.72392" lon="4.11416">
        <ele>1232.07</ele>
        <time>2002-03-27T11:07:52Z</time>
      </trkpt>
      <trkpt lat="44.72399" lon="4.11419">
        <ele>1232.55</ele>
        <time>2002-03-27T11:07:56Z</time>
      </trkpt>
      <trkpt lat="44.72416" lon="4.11435">
        <ele>1233.03</ele>
        <time>2002-03-27T11:08:08Z</time>
      </trkpt>
      <trkpt lat="44.72419" lon="4.11437">
        <ele>1233.03</ele>
        <time>2002-03-27T11:08:10Z</time>
      </trkpt>
      <trkpt lat="44.72428" lon="4.11447">
        <ele>1232.55</ele>
        <time>2002-03-27T11:08:16Z</time>
      </trkpt>
      <trkpt lat="44.72445" lon="4.11467">
        <ele>1232.07</ele>
        <time>2002-03-27T11:08:31Z</time>
      </trkpt>
      <trkpt lat="44.72451" lon="4.11479">
        <ele>1231.11</ele>
        <time>2002-03-27T11:08:39Z</time>
      </trkpt>
      <trkpt lat="44.72456" lon="4.11487">
        <ele>1231.11</ele>
        <time>2002-03-27T11:08:45Z</time>
      </trkpt>
      <trkpt lat="44.72459" lon="4.11493">
        <ele>1231.11</ele>
        <time>2002-03-27T11:08:49Z</time>
      </trkpt>
      <trkpt lat="44.72462" lon="4.11515">
        <ele>1231.11</ele>
        <time>2002-03-27T11:09:01Z</time>
      </trkpt>
      <trkpt lat="44.72464" lon="4.11542">
        <ele>1230.62</ele>
        <time>2002-03-27T11:09:14Z</time>
      </trkpt>
      <trkpt lat="44.72463" lon="4.11547">
        <ele>1230.62</ele>
        <time>2002-03-27T11:09:17Z</time>
      </trkpt>
      <trkpt lat="44.72466" lon="4.11568">
        <ele>1230.62</ele>
        <time>2002-03-27T11:09:30Z</time>
      </trkpt>
      <trkpt lat="44.72472" lon="4.11587">
        <ele>1230.14</ele>
        <time>2002-03-27T11:09:43Z</time>
      </trkpt>
      <trkpt lat="44.72477" lon="4.116">
        <ele>1229.66</ele>
        <time>2002-03-27T11:09:51Z</time>
      </trkpt>
      <trkpt lat="44.72486" lon="4.11622">
        <ele>1229.66</ele>
        <time>2002-03-27T11:10:04Z</time>
      </trkpt>
      <trkpt lat="44.72488" lon="4.11625">
        <ele>1230.62</ele>
        <time>2002-03-27T11:10:06Z</time>
      </trkpt>
      <trkpt lat="44.7249" lon="4.11635">
        <ele>1229.18</ele>
        <time>2002-03-27T11:10:12Z</time>
      </trkpt>
      <trkpt lat="44.72496" lon="4.11641">
        <ele>1230.14</ele>
        <time>2002-03-27T11:10:17Z</time>
      </trkpt>
      <trkpt lat="44.72507" lon="4.11665">
        <ele>1229.66</ele>
        <time>2002-03-27T11:10:31Z</time>
      </trkpt>
      <trkpt lat="44.72507" lon="4.11666">
        <ele>1229.66</ele>
        <time>2002-03-27T11:10:32Z</time>
      </trkpt>
      <trkpt lat="44.7251" lon="4.11679">
        <ele>1229.66</ele>
        <time>2002-03-27T11:10:40Z</time>
      </trkpt>
      <trkpt lat="44.72517" lon="4.11697">
        <ele>1229.66</ele>
        <time>2002-03-27T11:10:52Z</time>
      </trkpt>
      <trkpt lat="44.72519" lon="4.11705">
        <ele>1229.18</ele>
        <time>2002-03-27T11:10:57Z</time>
      </trkpt>
      <trkpt lat="44.72522" lon="4.11717">
        <ele>1229.18</ele>
        <time>2002-03-27T11:11:03Z</time>
      </trkpt>
      <trkpt lat="44.72527" lon="4.11728">
        <ele>1229.18</ele>
        <time>2002-03-27T11:11:09Z</time>
      </trkpt>
      <trkpt lat="44.72533" lon="4.11745">
        <ele>1228.7</ele>
        <time>2002-03-27T11:11:22Z</time>
      </trkpt>
      <trkpt lat="44.72534" lon="4.11763">
        <ele>1228.7</ele>
        <time>2002-03-27T11:11:30Z</time>
      </trkpt>
      <trkpt lat="44.72535" lon="4.1177">
        <ele>1227.74</ele>
        <time>2002-03-27T11:11:33Z</time>
      </trkpt>
      <trkpt lat="44.72531" lon="4.11782">
        <ele>1227.74</ele>
        <time>2002-03-27T11:11:46Z</time>
      </trkpt>
      <trkpt lat="44.72538" lon="4.11813">
        <ele>1225.82</ele>
        <time>2002-03-27T11:12:02Z</time>
      </trkpt>
      <trkpt lat="44.72543" lon="4.11822">
        <ele>1225.34</ele>
        <time>2002-03-27T11:12:07Z</time>
      </trkpt>
      <trkpt lat="44.72554" lon="4.11844">
        <ele>1223.42</ele>
        <time>2002-03-27T11:12:21Z</time>
      </trkpt>
      <trkpt lat="44.72554" lon="4.11851">
        <ele>1223.42</ele>
        <time>2002-03-27T11:12:26Z</time>
      </trkpt>
      <trkpt lat="44.72553" lon="4.11867">
        <ele>1222.93</ele>
        <time>2002-03-27T11:12:36Z</time>
      </trkpt>
      <trkpt lat="44.72552" lon="4.11877">
        <ele>1222.45</ele>
        <time>2002-03-27T11:12:42Z</time>
      </trkpt>
      <trkpt lat="44.72557" lon="4.11888">
        <ele>1221.01</ele>
        <time>2002-03-27T11:12:58Z</time>
      </trkpt>
      <trkpt lat="44.72565" lon="4.11901">
        <ele>1218.61</ele>
        <time>2002-03-27T11:14:01Z</time>
      </trkpt>
      <trkpt lat="44.72569" lon="4.11905">
        <ele>1217.65</ele>
        <time>2002-03-27T11:14:08Z</time>
      </trkpt>
      <trkpt lat="44.72591" lon="4.11912">
        <ele>1216.21</ele>
        <time>2002-03-27T11:14:23Z</time>
      </trkpt>
      <trkpt lat="44.72593" lon="4.11913">
        <ele>1215.72</ele>
        <time>2002-03-27T11:14:24Z</time>
      </trkpt>
      <trkpt lat="44.72607" lon="4.11916">
        <ele>1214.28</ele>
        <time>2002-03-27T11:14:36Z</time>
      </trkpt>
      <trkpt lat="44.72612" lon="4.11918">
        <ele>1213.32</ele>
        <time>2002-03-27T11:14:40Z</time>
      </trkpt>
      <trkpt lat="44.72631" lon="4.11927">
        <ele>1211.88</ele>
        <time>2002-03-27T11:14:54Z</time>
      </trkpt>
      <trkpt lat="44.72643" lon="4.11937">
        <ele>1210.92</ele>
        <time>2002-03-27T11:15:04Z</time>
      </trkpt>
      <trkpt lat="44.72657" lon="4.11944">
        <ele>1209.96</ele>
        <time>2002-03-27T11:15:15Z</time>
      </trkpt>
      <trkpt lat="44.72662" lon="4.11947">
        <ele>1209</ele>
        <time>2002-03-27T11:15:19Z</time>
      </trkpt>
      <trkpt lat="44.72664" lon="4.11948">
        <ele>1209</ele>
        <time>2002-03-27T11:15:21Z</time>
      </trkpt>
      <trkpt lat="44.72674" lon="4.11955">
        <ele>1208.03</ele>
        <time>2002-03-27T11:15:30Z</time>
      </trkpt>
      <trkpt lat="44.72694" lon="4.1196">
        <ele>1206.59</ele>
        <time>2002-03-27T11:15:43Z</time>
      </trkpt>
      <trkpt lat="44.72703" lon="4.11963">
        <ele>1205.63</ele>
        <time>2002-03-27T11:15:49Z</time>
      </trkpt>
      <trkpt lat="44.72712" lon="4.11967">
        <ele>1205.15</ele>
        <time>2002-03-27T11:16:05Z</time>
      </trkpt>
      <trkpt lat="44.7272" lon="4.11973">
        <ele>1203.71</ele>
        <time>2002-03-27T11:18:57Z</time>
      </trkpt>
      <trkpt lat="44.72726" lon="4.11991">
        <ele>1203.23</ele>
        <time>2002-03-27T11:19:09Z</time>
      </trkpt>
      <trkpt lat="44.72726" lon="4.12001">
        <ele>1203.71</ele>
        <time>2002-03-27T11:19:13Z</time>
      </trkpt>
      <trkpt lat="44.72725" lon="4.12011">
        <ele>1203.71</ele>
        <time>2002-03-27T11:19:18Z</time>
      </trkpt>
      <trkpt lat="44.72725" lon="4.12023">
        <ele>1203.71</ele>
        <time>2002-03-27T11:19:24Z</time>
      </trkpt>
      <trkpt lat="44.72722" lon="4.12029">
        <ele>1203.23</ele>
        <time>2002-03-27T11:19:27Z</time>
      </trkpt>
      <trkpt lat="44.72723" lon="4.12051">
        <ele>1203.23</ele>
        <time>2002-03-27T11:19:42Z</time>
      </trkpt>
      <trkpt lat="44.72723" lon="4.12052">
        <ele>1203.23</ele>
        <time>2002-03-27T11:19:43Z</time>
      </trkpt>
      <trkpt lat="44.72722" lon="4.12062">
        <ele>1203.23</ele>
        <time>2002-03-27T11:19:50Z</time>
      </trkpt>
      <trkpt lat="44.72723" lon="4.12068">
        <ele>1203.23</ele>
        <time>2002-03-27T11:19:54Z</time>
      </trkpt>
      <trkpt lat="44.72725" lon="4.12084">
        <ele>1202.75</ele>
        <time>2002-03-27T11:20:06Z</time>
      </trkpt>
      <trkpt lat="44.72726" lon="4.12088">
        <ele>1203.23</ele>
        <time>2002-03-27T11:20:35Z</time>
      </trkpt>
      <trkpt lat="44.72721" lon="4.12091">
        <ele>1206.59</ele>
        <time>2002-03-27T11:25:10Z</time>
      </trkpt>
      <trkpt lat="44.72712" lon="4.12078">
        <ele>1209.48</ele>
        <time>2002-03-27T11:32:57Z</time>
      </trkpt>
      <trkpt lat="44.72714" lon="4.12076">
        <ele>1212.84</ele>
        <time>2002-03-27T11:38:01Z</time>
      </trkpt>
      <trkpt lat="44.72713" lon="4.12075">
        <ele>1215.72</ele>
        <time>2002-03-27T11:41:52Z</time>
      </trkpt>
      <trkpt lat="44.72712" lon="4.12075">
        <ele>1216.69</ele>
        <time>2002-03-27T11:41:57Z</time>
      </trkpt>
      <trkpt lat="44.72712" lon="4.12076">
        <ele>1222.45</ele>
        <time>2002-03-27T11:42:36Z</time>
      </trkpt>
      <trkpt lat="44.72712" lon="4.12076">
        <ele>1217.65</ele>
        <time>2002-03-27T11:42:37Z</time>
      </trkpt>
      <trkpt lat="44.72712" lon="4.12076">
        <ele>1213.32</ele>
        <time>2002-03-27T11:42:53Z</time>
      </trkpt>
      <trkpt lat="44.72712" lon="4.12076">
        <ele>1220.05</ele>
        <time>2002-03-27T11:42:54Z</time>
      </trkpt>
      <trkpt lat="44.72712" lon="4.12076">
        <ele>1212.84</ele>
        <time>2002-03-27T11:43:00Z</time>
      </trkpt>
      <trkpt lat="44.72712" lon="4.12076">
        <ele>1216.69</ele>
        <time>2002-03-27T11:43:01Z</time>
      </trkpt>
      <trkpt lat="44.72712" lon="4.12076">
        <ele>1218.13</ele>
        <time>2002-03-27T11:43:03Z</time>
      </trkpt>
      <trkpt lat="44.72714" lon="4.12077">
        <ele>1217.65</ele>
        <time>2002-03-27T11:43:48Z</time>
      </trkpt>
      <trkpt lat="44.72714" lon="4.12081">
        <ele>1217.65</ele>
        <time>2002-03-27T11:43:50Z</time>
      </trkpt>
      <trkpt lat="44.72717" lon="4.12092">
        <ele>1217.65</ele>
        <time>2002-03-27T11:43:56Z</time>
      </trkpt>
      <trkpt lat="44.72718" lon="4.12096">
        <ele>1217.65</ele>
        <time>2002-03-27T11:43:58Z</time>
      </trkpt>
      <trkpt lat="44.72723" lon="4.121">
        <ele>1217.65</ele>
        <time>2002-03-27T11:44:02Z</time>
      </trkpt>
      <trkpt lat="44.72727" lon="4.12114">
        <ele>1217.65</ele>
        <time>2002-03-27T11:44:11Z</time>
      </trkpt>
      <trkpt lat="44.72729" lon="4.12122">
        <ele>1217.17</ele>
        <time>2002-03-27T11:44:16Z</time>
      </trkpt>
      <trkpt lat="44.7273" lon="4.12131">
        <ele>1217.65</ele>
        <time>2002-03-27T11:44:20Z</time>
      </trkpt>
      <trkpt lat="44.72737" lon="4.12156">
        <ele>1217.65</ele>
        <time>2002-03-27T11:44:32Z</time>
      </trkpt>
      <trkpt lat="44.72741" lon="4.12173">
        <ele>1218.13</ele>
        <time>2002-03-27T11:44:41Z</time>
      </trkpt>
      <trkpt lat="44.72743" lon="4.1219">
        <ele>1218.13</ele>
        <time>2002-03-27T11:44:52Z</time>
      </trkpt>
      <trkpt lat="44.72746" lon="4.1221">
        <ele>1218.13</ele>
        <time>2002-03-27T11:45:02Z</time>
      </trkpt>
      <trkpt lat="44.72747" lon="4.12229">
        <ele>1219.09</ele>
        <time>2002-03-27T11:45:13Z</time>
      </trkpt>
      <trkpt lat="44.72747" lon="4.12229">
        <ele>1219.09</ele>
        <time>2002-03-27T11:45:14Z</time>
      </trkpt>
      <trkpt lat="44.72748" lon="4.12236">
        <ele>1219.09</ele>
        <time>2002-03-27T11:45:17Z</time>
      </trkpt>
      <trkpt lat="44.72746" lon="4.12266">
        <ele>1220.05</ele>
        <time>2002-03-27T11:45:29Z</time>
      </trkpt>
      <trkpt lat="44.72745" lon="4.12279">
        <ele>1220.05</ele>
        <time>2002-03-27T11:45:38Z</time>
      </trkpt>
      <trkpt lat="44.72745" lon="4.12286">
        <ele>1220.05</ele>
        <time>2002-03-27T11:45:41Z</time>
      </trkpt>
      <trkpt lat="44.72745" lon="4.12305">
        <ele>1220.53</ele>
        <time>2002-03-27T11:45:52Z</time>
      </trkpt>
      <trkpt lat="44.72743" lon="4.12324">
        <ele>1220.53</ele>
        <time>2002-03-27T11:46:02Z</time>
      </trkpt>
      <trkpt lat="44.72742" lon="4.12343">
        <ele>1220.05</ele>
        <time>2002-03-27T11:46:12Z</time>
      </trkpt>
      <trkpt lat="44.72742" lon="4.12353">
        <ele>1220.05</ele>
        <time>2002-03-27T11:46:17Z</time>
      </trkpt>
      <trkpt lat="44.72736" lon="4.12387">
        <ele>1221.01</ele>
        <time>2002-03-27T11:46:29Z</time>
      </trkpt>
      <trkpt lat="44.72735" lon="4.12395">
        <ele>1221.01</ele>
        <time>2002-03-27T11:46:37Z</time>
      </trkpt>
      <trkpt lat="44.72727" lon="4.12416">
        <ele>1221.49</ele>
        <time>2002-03-27T11:46:45Z</time>
      </trkpt>
      <trkpt lat="44.72718" lon="4.12441">
        <ele>1222.45</ele>
        <time>2002-03-27T11:46:57Z</time>
      </trkpt>
      <trkpt lat="44.72711" lon="4.12458">
        <ele>1222.45</ele>
        <time>2002-03-27T11:47:10Z</time>
      </trkpt>
      <trkpt lat="44.72708" lon="4.12472">
        <ele>1222.45</ele>
        <time>2002-03-27T11:47:17Z</time>
      </trkpt>
      <trkpt lat="44.72701" lon="4.12489">
        <ele>1222.45</ele>
        <time>2002-03-27T11:47:25Z</time>
      </trkpt>
      <trkpt lat="44.72696" lon="4.12499">
        <ele>1222.93</ele>
        <time>2002-03-27T11:47:29Z</time>
      </trkpt>
      <trkpt lat="44.7269" lon="4.12526">
        <ele>1221.97</ele>
        <time>2002-03-27T11:47:41Z</time>
      </trkpt>
      <trkpt lat="44.72688" lon="4.1254">
        <ele>1221.97</ele>
        <time>2002-03-27T11:47:47Z</time>
      </trkpt>
      <trkpt lat="44.72687" lon="4.12557">
        <ele>1220.53</ele>
        <time>2002-03-27T11:47:55Z</time>
      </trkpt>
      <trkpt lat="44.7269" lon="4.12575">
        <ele>1219.57</ele>
        <time>2002-03-27T11:48:05Z</time>
      </trkpt>
      <trkpt lat="44.72694" lon="4.12594">
        <ele>1217.17</ele>
        <time>2002-03-27T11:48:16Z</time>
      </trkpt>
      <trkpt lat="44.72701" lon="4.12609">
        <ele>1216.21</ele>
        <time>2002-03-27T11:48:25Z</time>
      </trkpt>
      <trkpt lat="44.72702" lon="4.12613">
        <ele>1216.21</ele>
        <time>2002-03-27T11:48:27Z</time>
      </trkpt>
      <trkpt lat="44.72715" lon="4.12628">
        <ele>1214.76</ele>
        <time>2002-03-27T11:48:38Z</time>
      </trkpt>
      <trkpt lat="44.72716" lon="4.1263">
        <ele>1214.76</ele>
        <time>2002-03-27T11:48:40Z</time>
      </trkpt>
      <trkpt lat="44.72719" lon="4.12638">
        <ele>1214.28</ele>
        <time>2002-03-27T11:48:44Z</time>
      </trkpt>
      <trkpt lat="44.72731" lon="4.12653">
        <ele>1212.36</ele>
        <time>2002-03-27T11:48:54Z</time>
      </trkpt>
      <trkpt lat="44.72731" lon="4.12657">
        <ele>1211.88</ele>
        <time>2002-03-27T11:48:56Z</time>
      </trkpt>
      <trkpt lat="44.72738" lon="4.12668">
        <ele>1210.92</ele>
        <time>2002-03-27T11:49:05Z</time>
      </trkpt>
      <trkpt lat="44.72746" lon="4.12684">
        <ele>1209.96</ele>
        <time>2002-03-27T11:49:15Z</time>
      </trkpt>
      <trkpt lat="44.72755" lon="4.12701">
        <ele>1208.03</ele>
        <time>2002-03-27T11:49:26Z</time>
      </trkpt>
      <trkpt lat="44.72758" lon="4.12714">
        <ele>1207.07</ele>
        <time>2002-03-27T11:49:32Z</time>
      </trkpt>
      <trkpt lat="44.72762" lon="4.12724">
        <ele>1206.59</ele>
        <time>2002-03-27T11:49:37Z</time>
      </trkpt>
      <trkpt lat="44.72765" lon="4.12734">
        <ele>1206.11</ele>
        <time>2002-03-27T11:49:42Z</time>
      </trkpt>
      <trkpt lat="44.7277" lon="4.12754">
        <ele>1205.15</ele>
        <time>2002-03-27T11:49:52Z</time>
      </trkpt>
      <trkpt lat="44.72772" lon="4.12765">
        <ele>1204.19</ele>
        <time>2002-03-27T11:49:58Z</time>
      </trkpt>
      <trkpt lat="44.72771" lon="4.12792">
        <ele>1203.71</ele>
        <time>2002-03-27T11:50:09Z</time>
      </trkpt>
      <trkpt lat="44.72768" lon="4.12813">
        <ele>1203.71</ele>
        <time>2002-03-27T11:50:19Z</time>
      </trkpt>
      <trkpt lat="44.72764" lon="4.12835">
        <ele>1203.71</ele>
        <time>2002-03-27T11:50:30Z</time>
      </trkpt>
      <trkpt lat="44.72761" lon="4.12852">
        <ele>1203.71</ele>
        <time>2002-03-27T11:50:39Z</time>
      </trkpt>
      <trkpt lat="44.72762" lon="4.12867">
        <ele>1203.23</ele>
        <time>2002-03-27T11:50:49Z</time>
      </trkpt>
      <trkpt lat="44.72761" lon="4.12873">
        <ele>1203.23</ele>
        <time>2002-03-27T11:50:52Z</time>
      </trkpt>
      <trkpt lat="44.72761" lon="4.12877">
        <ele>1202.75</ele>
        <time>2002-03-27T11:50:54Z</time>
      </trkpt>
      <trkpt lat="44.7276" lon="4.12895">
        <ele>1202.27</ele>
        <time>2002-03-27T11:51:05Z</time>
      </trkpt>
      <trkpt lat="44.72759" lon="4.12913">
        <ele>1201.3</ele>
        <time>2002-03-27T11:51:16Z</time>
      </trkpt>
      <trkpt lat="44.72758" lon="4.12921">
        <ele>1201.3</ele>
        <time>2002-03-27T11:51:20Z</time>
      </trkpt>
      <trkpt lat="44.72758" lon="4.12947">
        <ele>1200.82</ele>
        <time>2002-03-27T11:51:32Z</time>
      </trkpt>
      <trkpt lat="44.72758" lon="4.12962">
        <ele>1200.34</ele>
        <time>2002-03-27T11:51:41Z</time>
      </trkpt>
      <trkpt lat="44.72758" lon="4.12966">
        <ele>1200.82</ele>
        <time>2002-03-27T11:51:43Z</time>
      </trkpt>
      <trkpt lat="44.72759" lon="4.12979">
        <ele>1199.86</ele>
        <time>2002-03-27T11:51:49Z</time>
      </trkpt>
      <trkpt lat="44.72761" lon="4.12998">
        <ele>1198.9</ele>
        <time>2002-03-27T11:52:01Z</time>
      </trkpt>
      <trkpt lat="44.72762" lon="4.13021">
        <ele>1198.9</ele>
        <time>2002-03-27T11:52:12Z</time>
      </trkpt>
      <trkpt lat="44.7276" lon="4.13028">
        <ele>1198.42</ele>
        <time>2002-03-27T11:52:14Z</time>
      </trkpt>
      <trkpt lat="44.7276" lon="4.13036">
        <ele>1198.42</ele>
        <time>2002-03-27T11:52:18Z</time>
      </trkpt>
      <trkpt lat="44.72761" lon="4.13055">
        <ele>1197.94</ele>
        <time>2002-03-27T11:52:26Z</time>
      </trkpt>
      <trkpt lat="44.72764" lon="4.13066">
        <ele>1197.46</ele>
        <time>2002-03-27T11:52:32Z</time>
      </trkpt>
      <trkpt lat="44.72769" lon="4.13091">
        <ele>1197.46</ele>
        <time>2002-03-27T11:52:45Z</time>
      </trkpt>
      <trkpt lat="44.72772" lon="4.13114">
        <ele>1197.46</ele>
        <time>2002-03-27T11:52:56Z</time>
      </trkpt>
      <trkpt lat="44.72777" lon="4.13128">
        <ele>1196.98</ele>
        <time>2002-03-27T11:53:04Z</time>
      </trkpt>
      <trkpt lat="44.72781" lon="4.13143">
        <ele>1197.46</ele>
        <time>2002-03-27T11:53:12Z</time>
      </trkpt>
      <trkpt lat="44.72781" lon="4.13148">
        <ele>1196.98</ele>
        <time>2002-03-27T11:53:14Z</time>
      </trkpt>
      <trkpt lat="44.72788" lon="4.13168">
        <ele>1197.46</ele>
        <time>2002-03-27T11:53:26Z</time>
      </trkpt>
      <trkpt lat="44.72791" lon="4.13175">
        <ele>1197.46</ele>
        <time>2002-03-27T11:53:30Z</time>
      </trkpt>
      <trkpt lat="44.72793" lon="4.13178">
        <ele>1197.46</ele>
        <time>2002-03-27T11:53:32Z</time>
      </trkpt>
      <trkpt lat="44.72801" lon="4.13195">
        <ele>1197.46</ele>
        <time>2002-03-27T11:53:43Z</time>
      </trkpt>
      <trkpt lat="44.7281" lon="4.13211">
        <ele>1197.46</ele>
        <time>2002-03-27T11:53:53Z</time>
      </trkpt>
      <trkpt lat="44.72819" lon="4.13229">
        <ele>1197.46</ele>
        <time>2002-03-27T11:54:06Z</time>
      </trkpt>
      <trkpt lat="44.7282" lon="4.1323">
        <ele>1196.98</ele>
        <time>2002-03-27T11:54:07Z</time>
      </trkpt>
      <trkpt lat="44.72823" lon="4.13239">
        <ele>1196.98</ele>
        <time>2002-03-27T11:54:13Z</time>
      </trkpt>
      <trkpt lat="44.72827" lon="4.1326">
        <ele>1196.5</ele>
        <time>2002-03-27T11:54:24Z</time>
      </trkpt>
      <trkpt lat="44.72835" lon="4.13282">
        <ele>1196.5</ele>
        <time>2002-03-27T11:54:37Z</time>
      </trkpt>
      <trkpt lat="44.72837" lon="4.1329">
        <ele>1196.5</ele>
        <time>2002-03-27T11:54:42Z</time>
      </trkpt>
      <trkpt lat="44.72843" lon="4.13302">
        <ele>1196.5</ele>
        <time>2002-03-27T11:54:50Z</time>
      </trkpt>
      <trkpt lat="44.72844" lon="4.13324">
        <ele>1196.02</ele>
        <time>2002-03-27T11:54:58Z</time>
      </trkpt>
      <trkpt lat="44.72844" lon="4.13331">
        <ele>1196.5</ele>
        <time>2002-03-27T11:55:01Z</time>
      </trkpt>
      <trkpt lat="44.72844" lon="4.13345">
        <ele>1196.5</ele>
        <time>2002-03-27T11:55:07Z</time>
      </trkpt>
      <trkpt lat="44.72851" lon="4.1337">
        <ele>1197.46</ele>
        <time>2002-03-27T11:55:19Z</time>
      </trkpt>
      <trkpt lat="44.72855" lon="4.1338">
        <ele>1197.46</ele>
        <time>2002-03-27T11:55:25Z</time>
      </trkpt>
      <trkpt lat="44.72856" lon="4.13391">
        <ele>1196.98</ele>
        <time>2002-03-27T11:55:30Z</time>
      </trkpt>
      <trkpt lat="44.72858" lon="4.13395">
        <ele>1196.98</ele>
        <time>2002-03-27T11:55:32Z</time>
      </trkpt>
      <trkpt lat="44.7286" lon="4.13402">
        <ele>1196.98</ele>
        <time>2002-03-27T11:55:36Z</time>
      </trkpt>
      <trkpt lat="44.72862" lon="4.13409">
        <ele>1196.5</ele>
        <time>2002-03-27T11:55:40Z</time>
      </trkpt>
      <trkpt lat="44.72864" lon="4.13422">
        <ele>1196.98</ele>
        <time>2002-03-27T11:55:46Z</time>
      </trkpt>
      <trkpt lat="44.72867" lon="4.13435">
        <ele>1196.5</ele>
        <time>2002-03-27T11:55:52Z</time>
      </trkpt>
      <trkpt lat="44.72871" lon="4.13441">
        <ele>1196.5</ele>
        <time>2002-03-27T11:55:56Z</time>
      </trkpt>
      <trkpt lat="44.72877" lon="4.13463">
        <ele>1196.5</ele>
        <time>2002-03-27T11:56:08Z</time>
      </trkpt>
      <trkpt lat="44.72879" lon="4.1347">
        <ele>1196.5</ele>
        <time>2002-03-27T11:56:12Z</time>
      </trkpt>
      <trkpt lat="44.72881" lon="4.13478">
        <ele>1196.5</ele>
        <time>2002-03-27T11:56:16Z</time>
      </trkpt>
      <trkpt lat="44.72883" lon="4.13492">
        <ele>1196.02</ele>
        <time>2002-03-27T11:56:24Z</time>
      </trkpt>
      <trkpt lat="44.72885" lon="4.13512">
        <ele>1196.5</ele>
        <time>2002-03-27T11:56:34Z</time>
      </trkpt>
      <trkpt lat="44.72886" lon="4.13514">
        <ele>1196.5</ele>
        <time>2002-03-27T11:56:35Z</time>
      </trkpt>
      <trkpt lat="44.72891" lon="4.13534">
        <ele>1196.02</ele>
        <time>2002-03-27T11:56:46Z</time>
      </trkpt>
      <trkpt lat="44.72898" lon="4.13548">
        <ele>1196.02</ele>
        <time>2002-03-27T11:56:55Z</time>
      </trkpt>
      <trkpt lat="44.72898" lon="4.13553">
        <ele>1195.54</ele>
        <time>2002-03-27T11:56:58Z</time>
      </trkpt>
      <trkpt lat="44.72907" lon="4.13571">
        <ele>1195.54</ele>
        <time>2002-03-27T11:57:09Z</time>
      </trkpt>
      <trkpt lat="44.72918" lon="4.13586">
        <ele>1195.06</ele>
        <time>2002-03-27T11:57:20Z</time>
      </trkpt>
      <trkpt lat="44.72922" lon="4.13591">
        <ele>1195.54</ele>
        <time>2002-03-27T11:57:24Z</time>
      </trkpt>
      <trkpt lat="44.72934" lon="4.13603">
        <ele>1195.54</ele>
        <time>2002-03-27T11:57:34Z</time>
      </trkpt>
      <trkpt lat="44.72938" lon="4.13611">
        <ele>1195.54</ele>
        <time>2002-03-27T11:57:39Z</time>
      </trkpt>
      <trkpt lat="44.72941" lon="4.13623">
        <ele>1195.54</ele>
        <time>2002-03-27T11:57:45Z</time>
      </trkpt>
      <trkpt lat="44.72946" lon="4.13641">
        <ele>1195.54</ele>
        <time>2002-03-27T11:57:55Z</time>
      </trkpt>
      <trkpt lat="44.72948" lon="4.13652">
        <ele>1195.54</ele>
        <time>2002-03-27T11:58:01Z</time>
      </trkpt>
      <trkpt lat="44.72953" lon="4.1367">
        <ele>1196.02</ele>
        <time>2002-03-27T11:58:10Z</time>
      </trkpt>
      <trkpt lat="44.72961" lon="4.13682">
        <ele>1195.54</ele>
        <time>2002-03-27T11:58:18Z</time>
      </trkpt>
      <trkpt lat="44.72968" lon="4.13687">
        <ele>1196.02</ele>
        <time>2002-03-27T11:58:23Z</time>
      </trkpt>
      <trkpt lat="44.72975" lon="4.13699">
        <ele>1195.54</ele>
        <time>2002-03-27T11:58:31Z</time>
      </trkpt>
      <trkpt lat="44.72981" lon="4.1372">
        <ele>1195.54</ele>
        <time>2002-03-27T11:58:41Z</time>
      </trkpt>
      <trkpt lat="44.72993" lon="4.13746">
        <ele>1194.58</ele>
        <time>2002-03-27T11:58:55Z</time>
      </trkpt>
      <trkpt lat="44.72994" lon="4.13767">
        <ele>1194.58</ele>
        <time>2002-03-27T11:59:04Z</time>
      </trkpt>
      <trkpt lat="44.72994" lon="4.13781">
        <ele>1194.58</ele>
        <time>2002-03-27T11:59:08Z</time>
      </trkpt>
      <trkpt lat="44.72998" lon="4.13804">
        <ele>1194.09</ele>
        <time>2002-03-27T11:59:18Z</time>
      </trkpt>
      <trkpt lat="44.73002" lon="4.13815">
        <ele>1194.09</ele>
        <time>2002-03-27T11:59:24Z</time>
      </trkpt>
      <trkpt lat="44.73008" lon="4.13832">
        <ele>1193.61</ele>
        <time>2002-03-27T11:59:35Z</time>
      </trkpt>
      <trkpt lat="44.73017" lon="4.1385">
        <ele>1193.61</ele>
        <time>2002-03-27T11:59:46Z</time>
      </trkpt>
      <trkpt lat="44.73021" lon="4.13854">
        <ele>1193.61</ele>
        <time>2002-03-27T11:59:49Z</time>
      </trkpt>
      <trkpt lat="44.73034" lon="4.13871">
        <ele>1194.09</ele>
        <time>2002-03-27T12:00:01Z</time>
      </trkpt>
      <trkpt lat="44.73042" lon="4.13885">
        <ele>1194.58</ele>
        <time>2002-03-27T12:00:13Z</time>
      </trkpt>
      <trkpt lat="44.73046" lon="4.13894">
        <ele>1194.58</ele>
        <time>2002-03-27T12:00:20Z</time>
      </trkpt>
      <trkpt lat="44.73056" lon="4.13909">
        <ele>1195.06</ele>
        <time>2002-03-27T12:00:33Z</time>
      </trkpt>
      <trkpt lat="44.73056" lon="4.13911">
        <ele>1195.06</ele>
        <time>2002-03-27T12:00:35Z</time>
      </trkpt>
      <trkpt lat="44.73068" lon="4.13922">
        <ele>1195.06</ele>
        <time>2002-03-27T12:00:44Z</time>
      </trkpt>
      <trkpt lat="44.73076" lon="4.1393">
        <ele>1195.06</ele>
        <time>2002-03-27T12:00:54Z</time>
      </trkpt>
      <trkpt lat="44.73087" lon="4.13944">
        <ele>1195.54</ele>
        <time>2002-03-27T12:01:04Z</time>
      </trkpt>
      <trkpt lat="44.73103" lon="4.13958">
        <ele>1195.06</ele>
        <time>2002-03-27T12:01:16Z</time>
      </trkpt>
      <trkpt lat="44.7311" lon="4.13965">
        <ele>1194.58</ele>
        <time>2002-03-27T12:01:21Z</time>
      </trkpt>
      <trkpt lat="44.73114" lon="4.13968">
        <ele>1194.58</ele>
        <time>2002-03-27T12:01:24Z</time>
      </trkpt>
      <trkpt lat="44.73116" lon="4.13971">
        <ele>1195.06</ele>
        <time>2002-03-27T12:01:26Z</time>
      </trkpt>
      <trkpt lat="44.73121" lon="4.13978">
        <ele>1194.58</ele>
        <time>2002-03-27T12:01:30Z</time>
      </trkpt>
      <trkpt lat="44.73129" lon="4.13992">
        <ele>1194.09</ele>
        <time>2002-03-27T12:01:38Z</time>
      </trkpt>
      <trkpt lat="44.7314" lon="4.14007">
        <ele>1194.09</ele>
        <time>2002-03-27T12:01:49Z</time>
      </trkpt>
      <trkpt lat="44.73149" lon="4.14025">
        <ele>1194.58</ele>
        <time>2002-03-27T12:02:01Z</time>
      </trkpt>
      <trkpt lat="44.7315" lon="4.14029">
        <ele>1194.09</ele>
        <time>2002-03-27T12:02:04Z</time>
      </trkpt>
      <trkpt lat="44.73155" lon="4.14046">
        <ele>1194.58</ele>
        <time>2002-03-27T12:02:15Z</time>
      </trkpt>
      <trkpt lat="44.73158" lon="4.14056">
        <ele>1195.54</ele>
        <time>2002-03-27T12:02:21Z</time>
      </trkpt>
      <trkpt lat="44.73162" lon="4.14074">
        <ele>1196.5</ele>
        <time>2002-03-27T12:02:32Z</time>
      </trkpt>
      <trkpt lat="44.73161" lon="4.14085">
        <ele>1196.5</ele>
        <time>2002-03-27T12:02:41Z</time>
      </trkpt>
      <trkpt lat="44.73161" lon="4.14098">
        <ele>1196.5</ele>
        <time>2002-03-27T12:03:20Z</time>
      </trkpt>
      <trkpt lat="44.73161" lon="4.14113">
        <ele>1196.98</ele>
        <time>2002-03-27T12:03:44Z</time>
      </trkpt>
      <trkpt lat="44.73163" lon="4.14127">
        <ele>1197.94</ele>
        <time>2002-03-27T12:03:55Z</time>
      </trkpt>
      <trkpt lat="44.73164" lon="4.14148">
        <ele>1198.9</ele>
        <time>2002-03-27T12:04:09Z</time>
      </trkpt>
      <trkpt lat="44.73167" lon="4.14164">
        <ele>1198.42</ele>
        <time>2002-03-27T12:04:20Z</time>
      </trkpt>
      <trkpt lat="44.73166" lon="4.14179">
        <ele>1199.38</ele>
        <time>2002-03-27T12:04:29Z</time>
      </trkpt>
      <trkpt lat="44.73167" lon="4.14199">
        <ele>1198.9</ele>
        <time>2002-03-27T12:04:41Z</time>
      </trkpt>
      <trkpt lat="44.73166" lon="4.14216">
        <ele>1199.38</ele>
        <time>2002-03-27T12:04:51Z</time>
      </trkpt>
      <trkpt lat="44.73167" lon="4.14233">
        <ele>1199.86</ele>
        <time>2002-03-27T12:05:01Z</time>
      </trkpt>
      <trkpt lat="44.73169" lon="4.14244">
        <ele>1200.34</ele>
        <time>2002-03-27T12:05:07Z</time>
      </trkpt>
      <trkpt lat="44.73171" lon="4.14255">
        <ele>1200.34</ele>
        <time>2002-03-27T12:05:12Z</time>
      </trkpt>
      <trkpt lat="44.73173" lon="4.14264">
        <ele>1200.82</ele>
        <time>2002-03-27T12:05:16Z</time>
      </trkpt>
      <trkpt lat="44.73175" lon="4.14282">
        <ele>1200.82</ele>
        <time>2002-03-27T12:05:26Z</time>
      </trkpt>
      <trkpt lat="44.73178" lon="4.14297">
        <ele>1201.3</ele>
        <time>2002-03-27T12:05:38Z</time>
      </trkpt>
      <trkpt lat="44.73187" lon="4.14311">
        <ele>1201.79</ele>
        <time>2002-03-27T12:05:48Z</time>
      </trkpt>
      <trkpt lat="44.73187" lon="4.14312">
        <ele>1201.79</ele>
        <time>2002-03-27T12:05:49Z</time>
      </trkpt>
      <trkpt lat="44.73196" lon="4.14324">
        <ele>1202.27</ele>
        <time>2002-03-27T12:05:59Z</time>
      </trkpt>
      <trkpt lat="44.73203" lon="4.14334">
        <ele>1202.75</ele>
        <time>2002-03-27T12:06:09Z</time>
      </trkpt>
      <trkpt lat="44.73205" lon="4.14337">
        <ele>1203.23</ele>
        <time>2002-03-27T12:06:11Z</time>
      </trkpt>
      <trkpt lat="44.73212" lon="4.14352">
        <ele>1204.67</ele>
        <time>2002-03-27T12:06:22Z</time>
      </trkpt>
      <trkpt lat="44.73213" lon="4.14357">
        <ele>1204.67</ele>
        <time>2002-03-27T12:06:26Z</time>
      </trkpt>
      <trkpt lat="44.73211" lon="4.14371">
        <ele>1206.59</ele>
        <time>2002-03-27T12:06:37Z</time>
      </trkpt>
      <trkpt lat="44.7321" lon="4.14373">
        <ele>1206.59</ele>
        <time>2002-03-27T12:06:39Z</time>
      </trkpt>
      <trkpt lat="44.73209" lon="4.14378">
        <ele>1206.11</ele>
        <time>2002-03-27T12:06:42Z</time>
      </trkpt>
      <trkpt lat="44.73207" lon="4.14385">
        <ele>1207.07</ele>
        <time>2002-03-27T12:06:47Z</time>
      </trkpt>
      <trkpt lat="44.73206" lon="4.14399">
        <ele>1208.51</ele>
        <time>2002-03-27T12:06:58Z</time>
      </trkpt>
      <trkpt lat="44.73202" lon="4.14407">
        <ele>1209</ele>
        <time>2002-03-27T12:07:06Z</time>
      </trkpt>
      <trkpt lat="44.73198" lon="4.14423">
        <ele>1209.48</ele>
        <time>2002-03-27T12:07:18Z</time>
      </trkpt>
      <trkpt lat="44.73196" lon="4.14435">
        <ele>1210.44</ele>
        <time>2002-03-27T12:07:27Z</time>
      </trkpt>
      <trkpt lat="44.73194" lon="4.14439">
        <ele>1210.92</ele>
        <time>2002-03-27T12:07:30Z</time>
      </trkpt>
      <trkpt lat="44.73193" lon="4.14442">
        <ele>1210.92</ele>
        <time>2002-03-27T12:07:32Z</time>
      </trkpt>
      <trkpt lat="44.73192" lon="4.14444">
        <ele>1210.92</ele>
        <time>2002-03-27T12:07:35Z</time>
      </trkpt>
      <trkpt lat="44.73194" lon="4.14451">
        <ele>1211.4</ele>
        <time>2002-03-27T12:07:40Z</time>
      </trkpt>
      <trkpt lat="44.73195" lon="4.14457">
        <ele>1212.36</ele>
        <time>2002-03-27T12:07:45Z</time>
      </trkpt>
      <trkpt lat="44.73198" lon="4.14462">
        <ele>1213.32</ele>
        <time>2002-03-27T12:07:54Z</time>
      </trkpt>
      <trkpt lat="44.7321" lon="4.1447">
        <ele>1214.76</ele>
        <time>2002-03-27T12:08:05Z</time>
      </trkpt>
      <trkpt lat="44.73218" lon="4.14475">
        <ele>1214.76</ele>
        <time>2002-03-27T12:08:14Z</time>
      </trkpt>
      <trkpt lat="44.73226" lon="4.14484">
        <ele>1216.69</ele>
        <time>2002-03-27T12:08:26Z</time>
      </trkpt>
      <trkpt lat="44.7323" lon="4.14497">
        <ele>1217.65</ele>
        <time>2002-03-27T12:08:36Z</time>
      </trkpt>
      <trkpt lat="44.73233" lon="4.14509">
        <ele>1218.13</ele>
        <time>2002-03-27T12:08:46Z</time>
      </trkpt>
      <trkpt lat="44.73234" lon="4.14523">
        <ele>1219.57</ele>
        <time>2002-03-27T12:08:56Z</time>
      </trkpt>
      <trkpt lat="44.73236" lon="4.14527">
        <ele>1219.57</ele>
        <time>2002-03-27T12:08:59Z</time>
      </trkpt>
      <trkpt lat="44.73236" lon="4.14536">
        <ele>1220.53</ele>
        <time>2002-03-27T12:09:06Z</time>
      </trkpt>
      <trkpt lat="44.73247" lon="4.14545">
        <ele>1221.01</ele>
        <time>2002-03-27T12:09:16Z</time>
      </trkpt>
      <trkpt lat="44.73259" lon="4.14556">
        <ele>1221.49</ele>
        <time>2002-03-27T12:09:27Z</time>
      </trkpt>
      <trkpt lat="44.73264" lon="4.14563">
        <ele>1221.49</ele>
        <time>2002-03-27T12:09:34Z</time>
      </trkpt>
      <trkpt lat="44.73276" lon="4.14572">
        <ele>1222.45</ele>
        <time>2002-03-27T12:09:46Z</time>
      </trkpt>
      <trkpt lat="44.73277" lon="4.14572">
        <ele>1222.45</ele>
        <time>2002-03-27T12:09:47Z</time>
      </trkpt>
      <trkpt lat="44.73285" lon="4.14582">
        <ele>1222.45</ele>
        <time>2002-03-27T12:09:57Z</time>
      </trkpt>
      <trkpt lat="44.73295" lon="4.14597">
        <ele>1222.93</ele>
        <time>2002-03-27T12:10:09Z</time>
      </trkpt>
      <trkpt lat="44.73302" lon="4.1461">
        <ele>1224.38</ele>
        <time>2002-03-27T12:10:20Z</time>
      </trkpt>
      <trkpt lat="44.73312" lon="4.14626">
        <ele>1224.38</ele>
        <time>2002-03-27T12:10:31Z</time>
      </trkpt>
      <trkpt lat="44.73318" lon="4.14633">
        <ele>1225.34</ele>
        <time>2002-03-27T12:10:37Z</time>
      </trkpt>
      <trkpt lat="44.73324" lon="4.14642">
        <ele>1225.34</ele>
        <time>2002-03-27T12:10:46Z</time>
      </trkpt>
      <trkpt lat="44.73331" lon="4.14653">
        <ele>1224.86</ele>
        <time>2002-03-27T12:10:56Z</time>
      </trkpt>
      <trkpt lat="44.73336" lon="4.14662">
        <ele>1224.86</ele>
        <time>2002-03-27T12:11:04Z</time>
      </trkpt>
      <trkpt lat="44.73345" lon="4.14677">
        <ele>1225.34</ele>
        <time>2002-03-27T12:11:15Z</time>
      </trkpt>
      <trkpt lat="44.73348" lon="4.14683">
        <ele>1224.86</ele>
        <time>2002-03-27T12:11:19Z</time>
      </trkpt>
      <trkpt lat="44.73353" lon="4.14686">
        <ele>1225.34</ele>
        <time>2002-03-27T12:11:22Z</time>
      </trkpt>
      <trkpt lat="44.73356" lon="4.14693">
        <ele>1224.86</ele>
        <time>2002-03-27T12:11:26Z</time>
      </trkpt>
      <trkpt lat="44.73365" lon="4.14707">
        <ele>1225.34</ele>
        <time>2002-03-27T12:11:38Z</time>
      </trkpt>
      <trkpt lat="44.73366" lon="4.14715">
        <ele>1225.34</ele>
        <time>2002-03-27T12:11:48Z</time>
      </trkpt>
      <trkpt lat="44.7337" lon="4.14727">
        <ele>1225.82</ele>
        <time>2002-03-27T12:11:57Z</time>
      </trkpt>
      <trkpt lat="44.73376" lon="4.14739">
        <ele>1226.3</ele>
        <time>2002-03-27T12:12:06Z</time>
      </trkpt>
      <trkpt lat="44.73382" lon="4.1476">
        <ele>1225.34</ele>
        <time>2002-03-27T12:12:30Z</time>
      </trkpt>
      <trkpt lat="44.73394" lon="4.14767">
        <ele>1224.86</ele>
        <time>2002-03-27T12:12:38Z</time>
      </trkpt>
      <trkpt lat="44.73399" lon="4.14773">
        <ele>1224.86</ele>
        <time>2002-03-27T12:12:41Z</time>
      </trkpt>
      <trkpt lat="44.73406" lon="4.14778">
        <ele>1224.86</ele>
        <time>2002-03-27T12:12:46Z</time>
      </trkpt>
      <trkpt lat="44.7341" lon="4.14785">
        <ele>1224.38</ele>
        <time>2002-03-27T12:12:54Z</time>
      </trkpt>
      <trkpt lat="44.73422" lon="4.14793">
        <ele>1224.38</ele>
        <time>2002-03-27T12:13:01Z</time>
      </trkpt>
      <trkpt lat="44.73437" lon="4.14807">
        <ele>1224.86</ele>
        <time>2002-03-27T12:13:12Z</time>
      </trkpt>
      <trkpt lat="44.73443" lon="4.1481">
        <ele>1224.38</ele>
        <time>2002-03-27T12:13:18Z</time>
      </trkpt>
      <trkpt lat="44.73446" lon="4.14813">
        <ele>1224.38</ele>
        <time>2002-03-27T12:13:20Z</time>
      </trkpt>
      <trkpt lat="44.73457" lon="4.14822">
        <ele>1224.86</ele>
        <time>2002-03-27T12:13:31Z</time>
      </trkpt>
      <trkpt lat="44.73459" lon="4.14823">
        <ele>1223.9</ele>
        <time>2002-03-27T12:13:33Z</time>
      </trkpt>
      <trkpt lat="44.73462" lon="4.14825">
        <ele>1224.38</ele>
        <time>2002-03-27T12:13:35Z</time>
      </trkpt>
      <trkpt lat="44.73474" lon="4.14836">
        <ele>1225.34</ele>
        <time>2002-03-27T12:13:46Z</time>
      </trkpt>
      <trkpt lat="44.73474" lon="4.14837">
        <ele>1225.34</ele>
        <time>2002-03-27T12:13:47Z</time>
      </trkpt>
      <trkpt lat="44.73475" lon="4.14843">
        <ele>1225.34</ele>
        <time>2002-03-27T12:13:52Z</time>
      </trkpt>
      <trkpt lat="44.73484" lon="4.14856">
        <ele>1226.3</ele>
        <time>2002-03-27T12:14:03Z</time>
      </trkpt>
      <trkpt lat="44.73485" lon="4.14857">
        <ele>1225.82</ele>
        <time>2002-03-27T12:14:04Z</time>
      </trkpt>
      <trkpt lat="44.73491" lon="4.14866">
        <ele>1226.3</ele>
        <time>2002-03-27T12:14:15Z</time>
      </trkpt>
      <trkpt lat="44.735" lon="4.14876">
        <ele>1226.78</ele>
        <time>2002-03-27T12:14:25Z</time>
      </trkpt>
      <trkpt lat="44.7351" lon="4.14883">
        <ele>1227.26</ele>
        <time>2002-03-27T12:14:35Z</time>
      </trkpt>
      <trkpt lat="44.73519" lon="4.14885">
        <ele>1227.74</ele>
        <time>2002-03-27T12:14:39Z</time>
      </trkpt>
      <trkpt lat="44.73522" lon="4.14887">
        <ele>1228.22</ele>
        <time>2002-03-27T12:14:44Z</time>
      </trkpt>
      <trkpt lat="44.73531" lon="4.14893">
        <ele>1228.7</ele>
        <time>2002-03-27T12:14:53Z</time>
      </trkpt>
      <trkpt lat="44.73541" lon="4.14899">
        <ele>1229.66</ele>
        <time>2002-03-27T12:15:04Z</time>
      </trkpt>
      <trkpt lat="44.73553" lon="4.149">
        <ele>1230.14</ele>
        <time>2002-03-27T12:15:15Z</time>
      </trkpt>
      <trkpt lat="44.7356" lon="4.14902">
        <ele>1232.07</ele>
        <time>2002-03-27T12:15:25Z</time>
      </trkpt>
      <trkpt lat="44.73562" lon="4.14902">
        <ele>1232.07</ele>
        <time>2002-03-27T12:15:27Z</time>
      </trkpt>
      <trkpt lat="44.73574" lon="4.14903">
        <ele>1233.51</ele>
        <time>2002-03-27T12:15:38Z</time>
      </trkpt>
      <trkpt lat="44.73588" lon="4.14905">
        <ele>1234.47</ele>
        <time>2002-03-27T12:15:50Z</time>
      </trkpt>
      <trkpt lat="44.73601" lon="4.14906">
        <ele>1234.47</ele>
        <time>2002-03-27T12:16:00Z</time>
      </trkpt>
      <trkpt lat="44.73622" lon="4.14908">
        <ele>1235.91</ele>
        <time>2002-03-27T12:16:11Z</time>
      </trkpt>
      <trkpt lat="44.73637" lon="4.14907">
        <ele>1235.91</ele>
        <time>2002-03-27T12:16:21Z</time>
      </trkpt>
      <trkpt lat="44.73638" lon="4.14907">
        <ele>1235.91</ele>
        <time>2002-03-27T12:16:22Z</time>
      </trkpt>
      <trkpt lat="44.73649" lon="4.14907">
        <ele>1236.39</ele>
        <time>2002-03-27T12:16:32Z</time>
      </trkpt>
      <trkpt lat="44.73657" lon="4.14905">
        <ele>1236.39</ele>
        <time>2002-03-27T12:16:40Z</time>
      </trkpt>
      <trkpt lat="44.73672" lon="4.14904">
        <ele>1236.39</ele>
        <time>2002-03-27T12:16:51Z</time>
      </trkpt>
      <trkpt lat="44.73683" lon="4.14899">
        <ele>1236.39</ele>
        <time>2002-03-27T12:17:01Z</time>
      </trkpt>
      <trkpt lat="44.73685" lon="4.14898">
        <ele>1236.87</ele>
        <time>2002-03-27T12:17:03Z</time>
      </trkpt>
      <trkpt lat="44.73699" lon="4.14891">
        <ele>1236.87</ele>
        <time>2002-03-27T12:17:14Z</time>
      </trkpt>
      <trkpt lat="44.7372" lon="4.14883">
        <ele>1237.35</ele>
        <time>2002-03-27T12:17:26Z</time>
      </trkpt>
      <trkpt lat="44.73726" lon="4.14878">
        <ele>1237.83</ele>
        <time>2002-03-27T12:17:32Z</time>
      </trkpt>
      <trkpt lat="44.73728" lon="4.14873">
        <ele>1238.32</ele>
        <time>2002-03-27T12:17:35Z</time>
      </trkpt>
      <trkpt lat="44.73733" lon="4.14869">
        <ele>1238.32</ele>
        <time>2002-03-27T12:17:38Z</time>
      </trkpt>
      <trkpt lat="44.73741" lon="4.1486">
        <ele>1238.8</ele>
        <time>2002-03-27T12:17:51Z</time>
      </trkpt>
      <trkpt lat="44.73744" lon="4.14855">
        <ele>1238.8</ele>
        <time>2002-03-27T12:18:06Z</time>
      </trkpt>
      <trkpt lat="44.73748" lon="4.14853">
        <ele>1239.28</ele>
        <time>2002-03-27T12:18:29Z</time>
      </trkpt>
      <trkpt lat="44.73752" lon="4.14849">
        <ele>1238.8</ele>
        <time>2002-03-27T12:18:45Z</time>
      </trkpt>
      <trkpt lat="44.73759" lon="4.14843">
        <ele>1239.28</ele>
        <time>2002-03-27T12:20:25Z</time>
      </trkpt>
      <trkpt lat="44.7377" lon="4.14831">
        <ele>1240.24</ele>
        <time>2002-03-27T12:20:39Z</time>
      </trkpt>
      <trkpt lat="44.73772" lon="4.14831">
        <ele>1239.28</ele>
        <time>2002-03-27T12:21:32Z</time>
      </trkpt>
      <trkpt lat="44.73778" lon="4.14828">
        <ele>1239.76</ele>
        <time>2002-03-27T12:21:55Z</time>
      </trkpt>
      <trkpt lat="44.7379" lon="4.14832">
        <ele>1240.72</ele>
        <time>2002-03-27T12:22:08Z</time>
      </trkpt>
      <trkpt lat="44.738" lon="4.14841">
        <ele>1242.16</ele>
        <time>2002-03-27T12:22:19Z</time>
      </trkpt>
      <trkpt lat="44.73806" lon="4.14845">
        <ele>1243.12</ele>
        <time>2002-03-27T12:22:25Z</time>
      </trkpt>
      <trkpt lat="44.73819" lon="4.14855">
        <ele>1243.6</ele>
        <time>2002-03-27T12:22:40Z</time>
      </trkpt>
      <trkpt lat="44.73832" lon="4.14864">
        <ele>1245.53</ele>
        <time>2002-03-27T12:22:55Z</time>
      </trkpt>
      <trkpt lat="44.73836" lon="4.14873">
        <ele>1246.97</ele>
        <time>2002-03-27T12:23:05Z</time>
      </trkpt>
      <trkpt lat="44.7384" lon="4.14876">
        <ele>1246.97</ele>
        <time>2002-03-27T12:23:11Z</time>
      </trkpt>
      <trkpt lat="44.73846" lon="4.14883">
        <ele>1248.41</ele>
        <time>2002-03-27T12:23:20Z</time>
      </trkpt>
      <trkpt lat="44.73856" lon="4.1489">
        <ele>1248.89</ele>
        <time>2002-03-27T12:23:29Z</time>
      </trkpt>
      <trkpt lat="44.73867" lon="4.14901">
        <ele>1250.33</ele>
        <time>2002-03-27T12:23:38Z</time>
      </trkpt>
      <trkpt lat="44.73875" lon="4.1491">
        <ele>1249.85</ele>
        <time>2002-03-27T12:23:46Z</time>
      </trkpt>
      <trkpt lat="44.7388" lon="4.14921">
        <ele>1250.81</ele>
        <time>2002-03-27T12:23:57Z</time>
      </trkpt>
      <trkpt lat="44.73885" lon="4.14929">
        <ele>1250.81</ele>
        <time>2002-03-27T12:24:04Z</time>
      </trkpt>
      <trkpt lat="44.73889" lon="4.14939">
        <ele>1251.77</ele>
        <time>2002-03-27T12:24:14Z</time>
      </trkpt>
      <trkpt lat="44.73891" lon="4.14941">
        <ele>1251.29</ele>
        <time>2002-03-27T12:24:18Z</time>
      </trkpt>
      <trkpt lat="44.73896" lon="4.14951">
        <ele>1251.29</ele>
        <time>2002-03-27T12:24:28Z</time>
      </trkpt>
      <trkpt lat="44.73897" lon="4.14953">
        <ele>1251.29</ele>
        <time>2002-03-27T12:24:30Z</time>
      </trkpt>
      <trkpt lat="44.73912" lon="4.14965">
        <ele>1249.37</ele>
        <time>2002-03-27T12:24:42Z</time>
      </trkpt>
      <trkpt lat="44.73915" lon="4.14966">
        <ele>1249.37</ele>
        <time>2002-03-27T12:24:44Z</time>
      </trkpt>
      <trkpt lat="44.73933" lon="4.14979">
        <ele>1247.93</ele>
        <time>2002-03-27T12:24:56Z</time>
      </trkpt>
      <trkpt lat="44.73939" lon="4.14983">
        <ele>1247.93</ele>
        <time>2002-03-27T12:25:00Z</time>
      </trkpt>
      <trkpt lat="44.73954" lon="4.14983">
        <ele>1247.45</ele>
        <time>2002-03-27T12:25:10Z</time>
      </trkpt>
      <trkpt lat="44.73957" lon="4.14988">
        <ele>1246.97</ele>
        <time>2002-03-27T12:25:13Z</time>
      </trkpt>
      <trkpt lat="44.73972" lon="4.14996">
        <ele>1246.49</ele>
        <time>2002-03-27T12:25:24Z</time>
      </trkpt>
      <trkpt lat="44.7398" lon="4.15001">
        <ele>1246.97</ele>
        <time>2002-03-27T12:25:30Z</time>
      </trkpt>
      <trkpt lat="44.73985" lon="4.15004">
        <ele>1245.53</ele>
        <time>2002-03-27T12:25:34Z</time>
      </trkpt>
      <trkpt lat="44.73988" lon="4.15005">
        <ele>1245.53</ele>
        <time>2002-03-27T12:25:36Z</time>
      </trkpt>
      <trkpt lat="44.73998" lon="4.15011">
        <ele>1245.53</ele>
        <time>2002-03-27T12:25:43Z</time>
      </trkpt>
      <trkpt lat="44.74007" lon="4.15016">
        <ele>1245.53</ele>
        <time>2002-03-27T12:25:53Z</time>
      </trkpt>
      <trkpt lat="44.74014" lon="4.15019">
        <ele>1245.04</ele>
        <time>2002-03-27T12:26:03Z</time>
      </trkpt>
      <trkpt lat="44.74024" lon="4.15021">
        <ele>1244.56</ele>
        <time>2002-03-27T12:26:15Z</time>
      </trkpt>
      <trkpt lat="44.74033" lon="4.15025">
        <ele>1244.56</ele>
        <time>2002-03-27T12:26:26Z</time>
      </trkpt>
      <trkpt lat="44.74045" lon="4.15029">
        <ele>1244.08</ele>
        <time>2002-03-27T12:26:39Z</time>
      </trkpt>
      <trkpt lat="44.74047" lon="4.15028">
        <ele>1244.08</ele>
        <time>2002-03-27T12:26:45Z</time>
      </trkpt>
      <trkpt lat="44.74065" lon="4.15038">
        <ele>1244.08</ele>
        <time>2002-03-27T12:26:57Z</time>
      </trkpt>
      <trkpt lat="44.74076" lon="4.15046">
        <ele>1244.08</ele>
        <time>2002-03-27T12:27:05Z</time>
      </trkpt>
      <trkpt lat="44.74093" lon="4.15053">
        <ele>1244.08</ele>
        <time>2002-03-27T12:27:15Z</time>
      </trkpt>
      <trkpt lat="44.74104" lon="4.15068">
        <ele>1244.08</ele>
        <time>2002-03-27T12:27:26Z</time>
      </trkpt>
      <trkpt lat="44.74117" lon="4.15083">
        <ele>1244.08</ele>
        <time>2002-03-27T12:27:36Z</time>
      </trkpt>
      <trkpt lat="44.74128" lon="4.151">
        <ele>1244.56</ele>
        <time>2002-03-27T12:27:49Z</time>
      </trkpt>
      <trkpt lat="44.7414" lon="4.1511">
        <ele>1244.56</ele>
        <time>2002-03-27T12:27:58Z</time>
      </trkpt>
      <trkpt lat="44.74142" lon="4.15125">
        <ele>1244.08</ele>
        <time>2002-03-27T12:28:11Z</time>
      </trkpt>
      <trkpt lat="44.7415" lon="4.15134">
        <ele>1243.6</ele>
        <time>2002-03-27T12:28:21Z</time>
      </trkpt>
      <trkpt lat="44.74164" lon="4.15143">
        <ele>1244.08</ele>
        <time>2002-03-27T12:28:32Z</time>
      </trkpt>
      <trkpt lat="44.74175" lon="4.15156">
        <ele>1244.08</ele>
        <time>2002-03-27T12:28:43Z</time>
      </trkpt>
      <trkpt lat="44.74187" lon="4.15173">
        <ele>1244.08</ele>
        <time>2002-03-27T12:28:57Z</time>
      </trkpt>
      <trkpt lat="44.74188" lon="4.15175">
        <ele>1244.08</ele>
        <time>2002-03-27T12:28:58Z</time>
      </trkpt>
      <trkpt lat="44.74196" lon="4.15184">
        <ele>1244.56</ele>
        <time>2002-03-27T12:29:06Z</time>
      </trkpt>
      <trkpt lat="44.74205" lon="4.15198">
        <ele>1244.56</ele>
        <time>2002-03-27T12:29:15Z</time>
      </trkpt>
      <trkpt lat="44.74217" lon="4.15209">
        <ele>1241.68</ele>
        <time>2002-03-27T12:31:00Z</time>
      </trkpt>
      <trkpt lat="44.74223" lon="4.15216">
        <ele>1241.68</ele>
        <time>2002-03-27T12:31:05Z</time>
      </trkpt>
      <trkpt lat="44.74238" lon="4.1523">
        <ele>1240.72</ele>
        <time>2002-03-27T12:31:15Z</time>
      </trkpt>
      <trkpt lat="44.74248" lon="4.15239">
        <ele>1240.72</ele>
        <time>2002-03-27T12:31:22Z</time>
      </trkpt>
      <trkpt lat="44.74256" lon="4.15251">
        <ele>1240.72</ele>
        <time>2002-03-27T12:31:29Z</time>
      </trkpt>
      <trkpt lat="44.74267" lon="4.15268">
        <ele>1240.24</ele>
        <time>2002-03-27T12:31:38Z</time>
      </trkpt>
      <trkpt lat="44.74271" lon="4.15274">
        <ele>1240.24</ele>
        <time>2002-03-27T12:31:41Z</time>
      </trkpt>
      <trkpt lat="44.74275" lon="4.15279">
        <ele>1240.24</ele>
        <time>2002-03-27T12:31:44Z</time>
      </trkpt>
      <trkpt lat="44.7428" lon="4.15288">
        <ele>1240.72</ele>
        <time>2002-03-27T12:31:50Z</time>
      </trkpt>
      <trkpt lat="44.74285" lon="4.1529">
        <ele>1240.24</ele>
        <time>2002-03-27T12:31:56Z</time>
      </trkpt>
      <trkpt lat="44.74288" lon="4.15293">
        <ele>1240.72</ele>
        <time>2002-03-27T12:31:59Z</time>
      </trkpt>
      <trkpt lat="44.74301" lon="4.15308">
        <ele>1240.24</ele>
        <time>2002-03-27T12:32:10Z</time>
      </trkpt>
      <trkpt lat="44.74304" lon="4.1532">
        <ele>1240.24</ele>
        <time>2002-03-27T12:32:18Z</time>
      </trkpt>
      <trkpt lat="44.74306" lon="4.15328">
        <ele>1240.24</ele>
        <time>2002-03-27T12:32:21Z</time>
      </trkpt>
      <trkpt lat="44.74309" lon="4.15342">
        <ele>1240.24</ele>
        <time>2002-03-27T12:32:27Z</time>
      </trkpt>
      <trkpt lat="44.7431" lon="4.15351">
        <ele>1240.24</ele>
        <time>2002-03-27T12:32:32Z</time>
      </trkpt>
      <trkpt lat="44.7431" lon="4.15363">
        <ele>1240.72</ele>
        <time>2002-03-27T12:32:37Z</time>
      </trkpt>
      <trkpt lat="44.7431" lon="4.15379">
        <ele>1240.72</ele>
        <time>2002-03-27T12:32:46Z</time>
      </trkpt>
      <trkpt lat="44.7431" lon="4.15384">
        <ele>1240.72</ele>
        <time>2002-03-27T12:32:49Z</time>
      </trkpt>
      <trkpt lat="44.74309" lon="4.15408">
        <ele>1241.2</ele>
        <time>2002-03-27T12:33:01Z</time>
      </trkpt>
      <trkpt lat="44.74307" lon="4.15415">
        <ele>1241.2</ele>
        <time>2002-03-27T12:33:05Z</time>
      </trkpt>
      <trkpt lat="44.74306" lon="4.1543">
        <ele>1241.2</ele>
        <time>2002-03-27T12:33:14Z</time>
      </trkpt>
      <trkpt lat="44.74304" lon="4.15447">
        <ele>1241.2</ele>
        <time>2002-03-27T12:33:23Z</time>
      </trkpt>
      <trkpt lat="44.74304" lon="4.15452">
        <ele>1241.68</ele>
        <time>2002-03-27T12:33:26Z</time>
      </trkpt>
      <trkpt lat="44.74303" lon="4.15464">
        <ele>1241.68</ele>
        <time>2002-03-27T12:33:32Z</time>
      </trkpt>
      <trkpt lat="44.74302" lon="4.15468">
        <ele>1241.68</ele>
        <time>2002-03-27T12:33:34Z</time>
      </trkpt>
      <trkpt lat="44.74302" lon="4.15473">
        <ele>1241.68</ele>
        <time>2002-03-27T12:33:36Z</time>
      </trkpt>
      <trkpt lat="44.74302" lon="4.15483">
        <ele>1241.68</ele>
        <time>2002-03-27T12:33:40Z</time>
      </trkpt>
      <trkpt lat="44.74302" lon="4.15498">
        <ele>1241.68</ele>
        <time>2002-03-27T12:33:49Z</time>
      </trkpt>
      <trkpt lat="44.74299" lon="4.15512">
        <ele>1241.2</ele>
        <time>2002-03-27T12:33:58Z</time>
      </trkpt>
      <trkpt lat="44.74297" lon="4.1552">
        <ele>1241.2</ele>
        <time>2002-03-27T12:34:04Z</time>
      </trkpt>
      <trkpt lat="44.74294" lon="4.15523">
        <ele>1241.68</ele>
        <time>2002-03-27T12:34:26Z</time>
      </trkpt>
      <trkpt lat="44.74292" lon="4.15523">
        <ele>1241.68</ele>
        <time>2002-03-27T12:36:06Z</time>
      </trkpt>
      <trkpt lat="44.74295" lon="4.15533">
        <ele>1240.72</ele>
        <time>2002-03-27T12:36:13Z</time>
      </trkpt>
      <trkpt lat="44.74295" lon="4.15544">
        <ele>1240.24</ele>
        <time>2002-03-27T12:36:20Z</time>
      </trkpt>
      <trkpt lat="44.74288" lon="4.15567">
        <ele>1239.28</ele>
        <time>2002-03-27T12:36:31Z</time>
      </trkpt>
      <trkpt lat="44.74284" lon="4.15574">
        <ele>1239.28</ele>
        <time>2002-03-27T12:36:35Z</time>
      </trkpt>
      <trkpt lat="44.74282" lon="4.15586">
        <ele>1238.32</ele>
        <time>2002-03-27T12:36:43Z</time>
      </trkpt>
      <trkpt lat="44.7428" lon="4.15595">
        <ele>1238.32</ele>
        <time>2002-03-27T12:36:49Z</time>
      </trkpt>
      <trkpt lat="44.74279" lon="4.15609">
        <ele>1237.35</ele>
        <time>2002-03-27T12:36:59Z</time>
      </trkpt>
      <trkpt lat="44.74278" lon="4.15612">
        <ele>1237.35</ele>
        <time>2002-03-27T12:37:01Z</time>
      </trkpt>
      <trkpt lat="44.74278" lon="4.15617">
        <ele>1236.87</ele>
        <time>2002-03-27T12:37:04Z</time>
      </trkpt>
      <trkpt lat="44.74277" lon="4.15621">
        <ele>1236.87</ele>
        <time>2002-03-27T12:37:06Z</time>
      </trkpt>
      <trkpt lat="44.74273" lon="4.15637">
        <ele>1235.43</ele>
        <time>2002-03-27T12:37:15Z</time>
      </trkpt>
      <trkpt lat="44.74272" lon="4.15642">
        <ele>1235.43</ele>
        <time>2002-03-27T12:37:18Z</time>
      </trkpt>
      <trkpt lat="44.7427" lon="4.15653">
        <ele>1233.99</ele>
        <time>2002-03-27T12:37:25Z</time>
      </trkpt>
      <trkpt lat="44.74269" lon="4.15661">
        <ele>1233.99</ele>
        <time>2002-03-27T12:37:29Z</time>
      </trkpt>
      <trkpt lat="44.74267" lon="4.1567">
        <ele>1233.03</ele>
        <time>2002-03-27T12:37:33Z</time>
      </trkpt>
      <trkpt lat="44.74264" lon="4.15676">
        <ele>1232.55</ele>
        <time>2002-03-27T12:37:37Z</time>
      </trkpt>
      <trkpt lat="44.74279" lon="4.15697">
        <ele>1231.11</ele>
        <time>2002-03-27T12:37:50Z</time>
      </trkpt>
      <trkpt lat="44.7428" lon="4.15701">
        <ele>1230.62</ele>
        <time>2002-03-27T12:37:52Z</time>
      </trkpt>
      <trkpt lat="44.74286" lon="4.15712">
        <ele>1230.14</ele>
        <time>2002-03-27T12:37:59Z</time>
      </trkpt>
      <trkpt lat="44.74297" lon="4.15731">
        <ele>1228.22</ele>
        <time>2002-03-27T12:38:11Z</time>
      </trkpt>
      <trkpt lat="44.74299" lon="4.15753">
        <ele>1227.74</ele>
        <time>2002-03-27T12:38:21Z</time>
      </trkpt>
      <trkpt lat="44.74305" lon="4.15773">
        <ele>1227.26</ele>
        <time>2002-03-27T12:38:33Z</time>
      </trkpt>
      <trkpt lat="44.74313" lon="4.15793">
        <ele>1226.3</ele>
        <time>2002-03-27T12:38:45Z</time>
      </trkpt>
      <trkpt lat="44.74319" lon="4.15809">
        <ele>1225.34</ele>
        <time>2002-03-27T12:38:55Z</time>
      </trkpt>
      <trkpt lat="44.7432" lon="4.15812">
        <ele>1225.34</ele>
        <time>2002-03-27T12:38:57Z</time>
      </trkpt>
      <trkpt lat="44.74324" lon="4.1583">
        <ele>1224.86</ele>
        <time>2002-03-27T12:39:07Z</time>
      </trkpt>
      <trkpt lat="44.74326" lon="4.15835">
        <ele>1224.38</ele>
        <time>2002-03-27T12:39:11Z</time>
      </trkpt>
      <trkpt lat="44.74334" lon="4.15837">
        <ele>1224.38</ele>
        <time>2002-03-27T12:39:23Z</time>
      </trkpt>
      <trkpt lat="44.74345" lon="4.15839">
        <ele>1224.86</ele>
        <time>2002-03-27T12:40:59Z</time>
      </trkpt>
      <trkpt lat="44.74352" lon="4.15861">
        <ele>1223.9</ele>
        <time>2002-03-27T12:41:13Z</time>
      </trkpt>
      <trkpt lat="44.74353" lon="4.15872">
        <ele>1223.9</ele>
        <time>2002-03-27T12:41:17Z</time>
      </trkpt>
      <trkpt lat="44.74353" lon="4.15899">
        <ele>1223.9</ele>
        <time>2002-03-27T12:41:29Z</time>
      </trkpt>
      <trkpt lat="44.74353" lon="4.15903">
        <ele>1223.42</ele>
        <time>2002-03-27T12:41:31Z</time>
      </trkpt>
      <trkpt lat="44.74346" lon="4.15929">
        <ele>1223.9</ele>
        <time>2002-03-27T12:41:43Z</time>
      </trkpt>
      <trkpt lat="44.74344" lon="4.15932">
        <ele>1222.93</ele>
        <time>2002-03-27T12:41:45Z</time>
      </trkpt>
      <trkpt lat="44.7434" lon="4.15938">
        <ele>1223.42</ele>
        <time>2002-03-27T12:41:49Z</time>
      </trkpt>
      <trkpt lat="44.7433" lon="4.15956">
        <ele>1222.93</ele>
        <time>2002-03-27T12:42:01Z</time>
      </trkpt>
      <trkpt lat="44.74321" lon="4.15978">
        <ele>1222.45</ele>
        <time>2002-03-27T12:42:15Z</time>
      </trkpt>
      <trkpt lat="44.74315" lon="4.16001">
        <ele>1223.42</ele>
        <time>2002-03-27T12:42:29Z</time>
      </trkpt>
      <trkpt lat="44.74313" lon="4.16014">
        <ele>1222.45</ele>
        <time>2002-03-27T12:42:37Z</time>
      </trkpt>
      <trkpt lat="44.74311" lon="4.1603">
        <ele>1223.42</ele>
        <time>2002-03-27T12:42:47Z</time>
      </trkpt>
      <trkpt lat="44.7431" lon="4.16035">
        <ele>1223.9</ele>
        <time>2002-03-27T12:42:50Z</time>
      </trkpt>
      <trkpt lat="44.74307" lon="4.16055">
        <ele>1223.9</ele>
        <time>2002-03-27T12:43:03Z</time>
      </trkpt>
      <trkpt lat="44.74303" lon="4.16071">
        <ele>1223.9</ele>
        <time>2002-03-27T12:43:12Z</time>
      </trkpt>
      <trkpt lat="44.74299" lon="4.16085">
        <ele>1223.42</ele>
        <time>2002-03-27T12:43:20Z</time>
      </trkpt>
      <trkpt lat="44.74303" lon="4.16095">
        <ele>1222.93</ele>
        <time>2002-03-27T12:43:28Z</time>
      </trkpt>
      <trkpt lat="44.74304" lon="4.16118">
        <ele>1221.49</ele>
        <time>2002-03-27T12:43:42Z</time>
      </trkpt>
      <trkpt lat="44.74304" lon="4.16126">
        <ele>1220.53</ele>
        <time>2002-03-27T12:43:46Z</time>
      </trkpt>
      <trkpt lat="44.74301" lon="4.16135">
        <ele>1220.05</ele>
        <time>2002-03-27T12:43:50Z</time>
      </trkpt>
      <trkpt lat="44.74298" lon="4.16143">
        <ele>1219.57</ele>
        <time>2002-03-27T12:43:54Z</time>
      </trkpt>
      <trkpt lat="44.74297" lon="4.16155">
        <ele>1218.13</ele>
        <time>2002-03-27T12:44:00Z</time>
      </trkpt>
      <trkpt lat="44.74297" lon="4.16172">
        <ele>1216.69</ele>
        <time>2002-03-27T12:44:10Z</time>
      </trkpt>
      <trkpt lat="44.74296" lon="4.16177">
        <ele>1216.69</ele>
        <time>2002-03-27T12:44:12Z</time>
      </trkpt>
      <trkpt lat="44.74288" lon="4.16212">
        <ele>1215.24</ele>
        <time>2002-03-27T12:44:25Z</time>
      </trkpt>
      <trkpt lat="44.74285" lon="4.16224">
        <ele>1213.8</ele>
        <time>2002-03-27T12:44:31Z</time>
      </trkpt>
      <trkpt lat="44.74284" lon="4.16233">
        <ele>1213.8</ele>
        <time>2002-03-27T12:44:36Z</time>
      </trkpt>
      <trkpt lat="44.74284" lon="4.16239">
        <ele>1213.32</ele>
        <time>2002-03-27T12:44:39Z</time>
      </trkpt>
      <trkpt lat="44.74271" lon="4.16262">
        <ele>1213.32</ele>
        <time>2002-03-27T12:44:50Z</time>
      </trkpt>
      <trkpt lat="44.74261" lon="4.1627">
        <ele>1211.88</ele>
        <time>2002-03-27T12:45:48Z</time>
      </trkpt>
      <trkpt lat="44.74261" lon="4.16269">
        <ele>1208.03</ele>
        <time>2002-03-27T12:46:57Z</time>
      </trkpt>
      <trkpt lat="44.74261" lon="4.16269">
        <ele>1211.88</ele>
        <time>2002-03-27T12:46:58Z</time>
      </trkpt>
      <trkpt lat="44.74261" lon="4.16269">
        <ele>1208.51</ele>
        <time>2002-03-27T12:47:00Z</time>
      </trkpt>
      <trkpt lat="44.74261" lon="4.16269">
        <ele>1212.84</ele>
        <time>2002-03-27T12:47:01Z</time>
      </trkpt>
      <trkpt lat="44.74261" lon="4.16269">
        <ele>1209</ele>
        <time>2002-03-27T12:47:03Z</time>
      </trkpt>
      <trkpt lat="44.74261" lon="4.16269">
        <ele>1212.36</ele>
        <time>2002-03-27T12:47:06Z</time>
      </trkpt>
    </trkseg>
  </trk>
</gpx>